Observation data for Lesley on 08/20/2019      Previous  Date  Next       Current Mesonet Observations  Soil Data  Daily Summary Page  Observations in Plain Language
KLE1 200500Z 13006KT 30/18 A2999 RMK A01 T02970177  RH  049%=      5-min Rain = 0
KLE1 200501Z 13006KT 30/18 A30 RMK A01 T02960178  RH  049%=      5-min Rain = 0
KLE1 200502Z 14005KT 30/18 A30 RMK A01 T02950177  RH  049%=      5-min Rain = 0
KLE1 200503Z 14006KT 30/18 A30 RMK A01 T02950177  RH  049%=      5-min Rain = 0
KLE1 200504Z 14006KT 29/18 A2999 RMK A01 T02940177  RH  049%=      5-min Rain = 0
KLE1 200505Z 14007KT 29/18 A2999 RMK A01 T02940177  RH  050%=      5-min Rain = 0
KLE1 200506Z 14007KT 29/18 A2999 RMK A01 T02930178  RH  050%=      5-min Rain = 0
KLE1 200507Z 15008KT 29/17 A2999 RMK A01 T02930174  RH  049%=      5-min Rain = 0
KLE1 200508Z 14007KT 30/18 A2999 RMK A01 T02950175  RH  049%=      5-min Rain = 0
KLE1 200509Z 15008KT 30/18 A2999 RMK A01 T02950176  RH  049%=      5-min Rain = 0
KLE1 200510Z 15009KT 30/17 A2999 RMK A01 T02960174  RH  048%=      5-min Rain = 0
KLE1 200511Z 15008KT 30/17 A2999 RMK A01 T02960174  RH  048%=      5-min Rain = 0
KLE1 200512Z 15008KT 30/18 A2999 RMK A01 T02970175  RH  048%=      5-min Rain = 0
KLE1 200513Z 15009KT 30/18 A2999 RMK A01 T02970175  RH  048%=      5-min Rain = 0
KLE1 200514Z 15009KT 30/18 A2999 RMK A01 T02960175  RH  048%=      5-min Rain = 0
KLE1 200515Z 15009KT 30/17 A2999 RMK A01 T02960174  RH  048%=      5-min Rain = 0
KLE1 200516Z 15008KT 30/17 A2999 RMK A01 T02960174  RH  048%=      5-min Rain = 0
KLE1 200517Z 15008KT 30/18 A2999 RMK A01 T02970176  RH  048%=      5-min Rain = 0
KLE1 200518Z 15009KT 30/18 A2999 RMK A01 T02960175  RH  048%=      5-min Rain = 0
KLE1 200519Z 15009KT 30/18 A2999 RMK A01 T02950175  RH  048%=      5-min Rain = 0
KLE1 200520Z 15009KT 30/17 A2999 RMK A01 T02950174  RH  048%=      5-min Rain = 0
KLE1 200521Z 15011KT 30/17 A2999 RMK A01 T02950173  RH  048%=      5-min Rain = 0
KLE1 200522Z 15010KT 30/17 A2999 RMK A01 T02960171  RH  047%=      5-min Rain = 0
KLE1 200523Z 15009KT 30/17 A2999 RMK A01 T02980173  RH  047%=      5-min Rain = 0
KLE1 200524Z 15009KT 30/17 A2999 RMK A01 T02980174  RH  047%=      5-min Rain = 0
KLE1 200525Z 15010KT 30/17 A2999 RMK A01 T02970173  RH  047%=      5-min Rain = 0
KLE1 200526Z 16009KT 30/17 A2999 RMK A01 T02970173  RH  047%=      5-min Rain = 0
KLE1 200527Z 15009KT 30/17 A2999 RMK A01 T02970174  RH  047%=      5-min Rain = 0
KLE1 200528Z 16010KT 30/17 A2999 RMK A01 T02970172  RH  047%=      5-min Rain = 0
KLE1 200529Z 16010KT 30/17 A2999 RMK A01 T02970172  RH  047%=      5-min Rain = 0
KLE1 200530Z 15009KT 30/17 A2999 RMK A01 T02980172  RH  047%=      5-min Rain = 0
KLE1 200531Z 16011KT 30/17 A2999 RMK A01 T02980171  RH  046%=      5-min Rain = 0
KLE1 200532Z 15011KT 30/17 A2999 RMK A01 T02990171  RH  046%=      5-min Rain = 0
KLE1 200533Z 16010KT 30/17 A2999 RMK A01 T03000171  RH  046%=      5-min Rain = 0
KLE1 200534Z 16009KT 30/17 A2999 RMK A01 T03000171  RH  046%=      5-min Rain = 0
KLE1 200535Z 16010KT 30/17 A2999 RMK A01 T03000172  RH  046%=      5-min Rain = 0
KLE1 200536Z 16009KT 30/17 A2999 RMK A01 T02990171  RH  046%=      5-min Rain = 0
KLE1 200537Z 15009KT 30/17 A2999 RMK A01 T02990172  RH  047%=      5-min Rain = 0
KLE1 200538Z 15010KT 30/17 A2999 RMK A01 T02980172  RH  047%=      5-min Rain = 0
KLE1 200539Z 16009KT 30/17 A2999 RMK A01 T02970172  RH  047%=      5-min Rain = 0
KLE1 200540Z 15010KT 30/17 A30 RMK A01 T02970173  RH  047%=      5-min Rain = 0
KLE1 200541Z 15010KT 30/17 A30 RMK A01 T02960172  RH  047%=      5-min Rain = 0
KLE1 200542Z 15009KT 30/17 A30 RMK A01 T02960172  RH  047%=      5-min Rain = 0
KLE1 200543Z 15009KT 30/17 A30 RMK A01 T02960173  RH  047%=      5-min Rain = 0
KLE1 200544Z 15009KT 30/17 A30 RMK A01 T02950172  RH  048%=      5-min Rain = 0
KLE1 200545Z 15009KT 30/17 A30 RMK A01 T02950173  RH  048%=      5-min Rain = 0
KLE1 200546Z 15008KT 30/17 A30 RMK A01 T02950173  RH  048%=      5-min Rain = 0
KLE1 200547Z 15008KT 30/17 A30 RMK A01 T02950173  RH  048%=      5-min Rain = 0
KLE1 200548Z 15008KT 30/17 A30 RMK A01 T02950173  RH  048%=      5-min Rain = 0
KLE1 200549Z 15008KT 29/17 A30 RMK A01 T02940174  RH  048%=      5-min Rain = 0
KLE1 200550Z 15008KT 29/17 A30 RMK A01 T02930173  RH  048%=      5-min Rain = 0
KLE1 200551Z 14008KT 29/17 A30 RMK A01 T02920173  RH  049%=      5-min Rain = 0
KLE1 200552Z 14008KT 29/17 A30 RMK A01 T02920173  RH  049%=      5-min Rain = 0
KLE1 200553Z 14008KT 29/17 A30 RMK A01 T02920174  RH  049%=      5-min Rain = 0
KLE1 200554Z 14008KT 29/17 A30 RMK A01 T02920174  RH  049%=      5-min Rain = 0
KLE1 200555Z 14007KT 29/17 A30 RMK A01 T02910174  RH  049%=      5-min Rain = 0
KLE1 200556Z 14008KT 29/18 A30 RMK A01 T02910175  RH  049%=      5-min Rain = 0
KLE1 200557Z 14007KT 29/17 A30 RMK A01 T02910174  RH  049%=      5-min Rain = 0
KLE1 200558Z 14008KT 29/17 A30 RMK A01 T02910174  RH  049%=      5-min Rain = 0
KLE1 200559Z 14007KT 29/18 A30 RMK A01 T02900175  RH  050%=      5-min Rain = 0
KLE1 200600Z 14007KT 29/18 A30 RMK A01 T02890175  RH  050%=      5-min Rain = 0
KLE1 200601Z 14008KT 29/18 A30 RMK A01 T02890175  RH  050%=      5-min Rain = 0
KLE1 200602Z 14008KT 29/18 A30 RMK A01 T02880175  RH  050%=      5-min Rain = 0
KLE1 200603Z 14008KT 29/18 A30 RMK A01 T02880175  RH  050%=      5-min Rain = 0
KLE1 200604Z 14007KT 29/18 A30 RMK A01 T02880175  RH  050%=      5-min Rain = 0
KLE1 200605Z 14006KT 29/18 A30 RMK A01 T02880175  RH  050%=      5-min Rain = 0
KLE1 200606Z 14007KT 29/18 A30 RMK A01 T02880176  RH  051%=      5-min Rain = 0
KLE1 200607Z 13008KT 29/18 A30 RMK A01 T02870175  RH  051%=      5-min Rain = 0
KLE1 200608Z 13008KT 29/18 A30 RMK A01 T02870175  RH  051%=      5-min Rain = 0
KLE1 200609Z 13008KT 29/18 A30 RMK A01 T02870176  RH  051%=      5-min Rain = 0
KLE1 200610Z 13008KT 29/18 A30 RMK A01 T02860176  RH  051%=      5-min Rain = 0
KLE1 200611Z 13008KT 29/18 A30 RMK A01 T02860177  RH  052%=      5-min Rain = 0
KLE1 200612Z 13008KT 29/18 A30 RMK A01 T02860177  RH  052%=      5-min Rain = 0
KLE1 200613Z 13008KT 29/18 A30 RMK A01 T02850177  RH  052%=      5-min Rain = 0
KLE1 200614Z 12007KT 29/18 A30 RMK A01 T02850178  RH  052%=      5-min Rain = 0
KLE1 200615Z 13008KT 28/18 A30 RMK A01 T02840177  RH  052%=      5-min Rain = 0
KLE1 200616Z 13008KT 28/18 A30 RMK A01 T02830177  RH  052%=      5-min Rain = 0
KLE1 200617Z 13008KT 28/18 A30 RMK A01 T02830177  RH  052%=      5-min Rain = 0
KLE1 200618Z 13008KT 28/18 A30 RMK A01 T02830176  RH  052%=      5-min Rain = 0
KLE1 200619Z 13007KT 28/18 A30 RMK A01 T02840177  RH  052%=      5-min Rain = 0
KLE1 200620Z 13007KT 28/18 A30 RMK A01 T02840178  RH  053%=      5-min Rain = 0
KLE1 200621Z 13007KT 28/18 A30 RMK A01 T02830177  RH  053%=      5-min Rain = 0
KLE1 200622Z 12006KT 28/18 A30 RMK A01 T02830177  RH  053%=      5-min Rain = 0
KLE1 200623Z 12007KT 28/18 A30 RMK A01 T02830177  RH  053%=      5-min Rain = 0
KLE1 200624Z 12006KT 28/18 A30 RMK A01 T02820178  RH  053%=      5-min Rain = 0
KLE1 200625Z 12006KT 28/18 A30 RMK A01 T02820179  RH  053%=      5-min Rain = 0
KLE1 200626Z 12007KT 28/18 A30 RMK A01 T02810178  RH  053%=      5-min Rain = 0
KLE1 200627Z 12007KT 28/18 A30 RMK A01 T02810178  RH  053%=      5-min Rain = 0
KLE1 200628Z 12006KT 28/18 A30 RMK A01 T02810179  RH  054%=      5-min Rain = 0
KLE1 200629Z 12006KT 28/18 A30 RMK A01 T02810179  RH  054%=      5-min Rain = 0
KLE1 200630Z 12006KT 28/18 A30 RMK A01 T02800179  RH  054%=      5-min Rain = 0
KLE1 200631Z 12006KT 28/18 A30 RMK A01 T02790179  RH  054%=      5-min Rain = 0
KLE1 200632Z 12006KT 28/18 A30 RMK A01 T02790179  RH  054%=      5-min Rain = 0
KLE1 200633Z 12006KT 28/18 A30 RMK A01 T02790178  RH  054%=      5-min Rain = 0
KLE1 200634Z 13006KT 28/18 A30 RMK A01 T02790178  RH  054%=      5-min Rain = 0
KLE1 200635Z 13006KT 28/18 A30 RMK A01 T02790178  RH  054%=      5-min Rain = 0
KLE1 200636Z 13006KT 28/18 A30 RMK A01 T02790178  RH  054%=      5-min Rain = 0
KLE1 200637Z 13006KT 28/18 A30 RMK A01 T02790179  RH  054%=      5-min Rain = 0
KLE1 200638Z 13007KT 28/18 A30 RMK A01 T02790179  RH  055%=      5-min Rain = 0
KLE1 200639Z 13006KT 28/18 A30 RMK A01 T02790178  RH  054%=      5-min Rain = 0
KLE1 200640Z 12006KT 28/18 A30 RMK A01 T02790178  RH  054%=      5-min Rain = 0
KLE1 200641Z 12006KT 28/18 A30 RMK A01 T02790180  RH  055%=      5-min Rain = 0
KLE1 200642Z 12006KT 28/18 A30 RMK A01 T02770181  RH  056%=      5-min Rain = 0
KLE1 200643Z 13007KT 28/18 A30 RMK A01 T02760180  RH  056%=      5-min Rain = 0
KLE1 200644Z 12006KT 28/18 A30 RMK A01 T02760178  RH  055%=      5-min Rain = 0
KLE1 200645Z 12006KT 28/18 A30 RMK A01 T02760179  RH  055%=      5-min Rain = 0
KLE1 200646Z 12006KT 28/18 A30 RMK A01 T02760179  RH  056%=      5-min Rain = 0
KLE1 200647Z 12006KT 28/18 A30 RMK A01 T02760179  RH  055%=      5-min Rain = 0
KLE1 200648Z 12006KT 28/18 A30 RMK A01 T02770179  RH  055%=      5-min Rain = 0
KLE1 200649Z 12006KT 28/18 A30 RMK A01 T02770179  RH  055%=      5-min Rain = 0
KLE1 200650Z 12006KT 28/18 A30 RMK A01 T02770180  RH  055%=      5-min Rain = 0
KLE1 200651Z 11006KT 28/18 A30 RMK A01 T02770181  RH  056%=      5-min Rain = 0
KLE1 200652Z 12006KT 28/18 A30 RMK A01 T02750181  RH  056%=      5-min Rain = 0
KLE1 200653Z 11006KT 27/18 A30 RMK A01 T02740181  RH  057%=      5-min Rain = 0
KLE1 200654Z 11006KT 27/18 A3001 RMK A01 T02740182  RH  057%=      5-min Rain = 0
KLE1 200655Z 11007KT 27/18 A3001 RMK A01 T02730181  RH  057%=      5-min Rain = 0
KLE1 200656Z 11006KT 27/18 A3001 RMK A01 T02730180  RH  057%=      5-min Rain = 0
KLE1 200657Z 11006KT 27/18 A3001 RMK A01 T02730179  RH  056%=      5-min Rain = 0
KLE1 200658Z 11007KT 27/18 A3001 RMK A01 T02740180  RH  056%=      5-min Rain = 0
KLE1 200659Z 11006KT 28/18 A3001 RMK A01 T02750178  RH  056%=      5-min Rain = 0
KLE1 200700Z 11006KT 28/18 A3001 RMK A01 T02760180  RH  056%=      5-min Rain = 0
KLE1 200701Z 11006KT 28/18 A3001 RMK A01 T02760182  RH  056%=      5-min Rain = 0
KLE1 200702Z 11007KT 28/18 A3001 RMK A01 T02750182  RH  057%=      5-min Rain = 0
KLE1 200703Z 10006KT 27/18 A3001 RMK A01 T02740180  RH  056%=      5-min Rain = 0
KLE1 200704Z 10006KT 28/18 A3001 RMK A01 T02750180  RH  056%=      5-min Rain = 0
KLE1 200705Z 10007KT 28/18 A3001 RMK A01 T02750180  RH  056%=      5-min Rain = 0
KLE1 200706Z 10007KT 28/18 A3001 RMK A01 T02750180  RH  056%=      5-min Rain = 0
KLE1 200707Z 10006KT 27/18 A3001 RMK A01 T02740180  RH  056%=      5-min Rain = 0
KLE1 200708Z 10007KT 27/18 A3001 RMK A01 T02740180  RH  057%=      5-min Rain = 0
KLE1 200709Z 10007KT 27/18 A3001 RMK A01 T02730180  RH  057%=      5-min Rain = 0
KLE1 200710Z 10007KT 27/18 A30 RMK A01 T02720180  RH  057%=      5-min Rain = 0
KLE1 200711Z 10007KT 27/18 A30 RMK A01 T02710179  RH  057%=      5-min Rain = 0
KLE1 200712Z 10007KT 27/18 A30 RMK A01 T02720179  RH  057%=      5-min Rain = 0
KLE1 200713Z 10008KT 27/18 A30 RMK A01 T02720179  RH  057%=      5-min Rain = 0
KLE1 200714Z 10007KT 27/18 A30 RMK A01 T02720179  RH  057%=      5-min Rain = 0
KLE1 200715Z 10008KT 27/18 A30 RMK A01 T02730179  RH  057%=      5-min Rain = 0
KLE1 200716Z 10008KT 27/18 A30 RMK A01 T02730179  RH  056%=      5-min Rain = 0
KLE1 200717Z 10007KT 27/18 A30 RMK A01 T02730178  RH  056%=      5-min Rain = 0
KLE1 200718Z 10007KT 27/18 A3001 RMK A01 T02740178  RH  056%=      5-min Rain = 0
KLE1 200719Z 10007KT 27/18 A3001 RMK A01 T02740179  RH  056%=      5-min Rain = 0
KLE1 200720Z 10008KT 27/18 A3001 RMK A01 T02740179  RH  056%=      5-min Rain = 0
KLE1 200721Z 10008KT 28/18 A3001 RMK A01 T02750178  RH  056%=      5-min Rain = 0
KLE1 200722Z 10008KT 28/18 A3001 RMK A01 T02750177  RH  055%=      5-min Rain = 0
KLE1 200723Z 10008KT 28/18 A3001 RMK A01 T02760177  RH  055%=      5-min Rain = 0
KLE1 200724Z 10008KT 28/18 A3001 RMK A01 T02770178  RH  055%=      5-min Rain = 0
KLE1 200725Z 10007KT 28/18 A3001 RMK A01 T02770178  RH  055%=      5-min Rain = 0
KLE1 200726Z 10007KT 28/18 A3001 RMK A01 T02770179  RH  055%=      5-min Rain = 0
KLE1 200727Z 10008KT 28/18 A3001 RMK A01 T02760179  RH  055%=      5-min Rain = 0
KLE1 200728Z 10009KT 28/18 A3001 RMK A01 T02760178  RH  055%=      5-min Rain = 0
KLE1 200729Z 10009KT 28/18 A3001 RMK A01 T02760178  RH  055%=      5-min Rain = 0
KLE1 200730Z 10009KT 28/18 A3001 RMK A01 T02760178  RH  055%=      5-min Rain = 0
KLE1 200731Z 10008KT 28/18 A3001 RMK A01 T02760178  RH  055%=      5-min Rain = 0
KLE1 200732Z 10008KT 28/18 A3001 RMK A01 T02760178  RH  055%=      5-min Rain = 0
KLE1 200733Z 10008KT 28/18 A3001 RMK A01 T02760178  RH  055%=      5-min Rain = 0
KLE1 200734Z 10008KT 28/18 A3001 RMK A01 T02760179  RH  055%=      5-min Rain = 0
KLE1 200735Z 10008KT 28/18 A3001 RMK A01 T02760179  RH  055%=      5-min Rain = 0
KLE1 200736Z 11008KT 28/18 A3001 RMK A01 T02760179  RH  056%=      5-min Rain = 0
KLE1 200737Z 11007KT 28/18 A3001 RMK A01 T02760179  RH  056%=      5-min Rain = 0
KLE1 200738Z 10007KT 28/18 A3001 RMK A01 T02760179  RH  056%=      5-min Rain = 0
KLE1 200739Z 11008KT 28/18 A3001 RMK A01 T02750180  RH  056%=      5-min Rain = 0
KLE1 200740Z 11008KT 28/18 A3001 RMK A01 T02750180  RH  056%=      5-min Rain = 0
KLE1 200741Z 11008KT 27/18 A3001 RMK A01 T02740179  RH  056%=      5-min Rain = 0
KLE1 200742Z 11008KT 27/18 A3001 RMK A01 T02740179  RH  056%=      5-min Rain = 0
KLE1 200743Z 11008KT 27/18 A3001 RMK A01 T02740179  RH  056%=      5-min Rain = 0
KLE1 200744Z 11007KT 27/18 A3001 RMK A01 T02740180  RH  057%=      5-min Rain = 0
KLE1 200745Z 11007KT 27/18 A3001 RMK A01 T02740180  RH  057%=      5-min Rain = 0
KLE1 200746Z 12007KT 27/18 A3001 RMK A01 T02730181  RH  057%=      5-min Rain = 0
KLE1 200747Z 11006KT 27/18 A3001 RMK A01 T02720181  RH  057%=      5-min Rain = 0
KLE1 200748Z 11007KT 27/18 A3001 RMK A01 T02720181  RH  058%=      5-min Rain = 0
KLE1 200749Z 12007KT 27/18 A3001 RMK A01 T02710181  RH  058%=      5-min Rain = 0
KLE1 200750Z 12008KT 27/18 A3001 RMK A01 T02710182  RH  058%=      5-min Rain = 0
KLE1 200751Z 12008KT 27/18 A3001 RMK A01 T02710181  RH  058%=      5-min Rain = 0
KLE1 200752Z 11008KT 27/18 A3001 RMK A01 T02710181  RH  058%=      5-min Rain = 0
KLE1 200753Z 11007KT 27/18 A3001 RMK A01 T02720182  RH  058%=      5-min Rain = 0
KLE1 200754Z 12008KT 27/18 A3001 RMK A01 T02710182  RH  058%=      5-min Rain = 0
KLE1 200755Z 12008KT 27/18 A3001 RMK A01 T02710183  RH  059%=      5-min Rain = 0
KLE1 200756Z 12007KT 27/18 A3001 RMK A01 T02700183  RH  059%=      5-min Rain = 0
KLE1 200757Z 12007KT 27/18 A3001 RMK A01 T02700183  RH  059%=      5-min Rain = 0
KLE1 200758Z 12007KT 27/18 A3001 RMK A01 T02700183  RH  059%=      5-min Rain = 0
KLE1 200759Z 12007KT 27/18 A3001 RMK A01 T02690183  RH  059%=      5-min Rain = 0
KLE1 200800Z 11007KT 27/18 A3001 RMK A01 T02690183  RH  059%=      5-min Rain = 0
KLE1 200801Z 12006KT 27/18 A3001 RMK A01 T02680183  RH  060%=      5-min Rain = 0
KLE1 200802Z 12007KT 27/18 A3001 RMK A01 T02680183  RH  060%=      5-min Rain = 0
KLE1 200803Z 12006KT 27/18 A3001 RMK A01 T02680184  RH  060%=      5-min Rain = 0
KLE1 200804Z 12006KT 27/18 A3001 RMK A01 T02670183  RH  060%=      5-min Rain = 0
KLE1 200805Z 11006KT 27/18 A3001 RMK A01 T02670183  RH  060%=      5-min Rain = 0
KLE1 200806Z 11006KT 27/18 A3001 RMK A01 T02670184  RH  060%=      5-min Rain = 0
KLE1 200807Z 12007KT 27/18 A3001 RMK A01 T02660184  RH  061%=      5-min Rain = 0
KLE1 200808Z 12007KT 27/19 A3001 RMK A01 T02660185  RH  061%=      5-min Rain = 0
KLE1 200809Z 11007KT 27/19 A3001 RMK A01 T02650185  RH  061%=      5-min Rain = 0
KLE1 200810Z 11007KT 27/19 A3001 RMK A01 T02650185  RH  062%=      5-min Rain = 0
KLE1 200811Z 11007KT 26/19 A3001 RMK A01 T02640185  RH  062%=      5-min Rain = 0
KLE1 200812Z 11006KT 26/19 A3001 RMK A01 T02640185  RH  062%=      5-min Rain = 0
KLE1 200813Z 11006KT 26/19 A3001 RMK A01 T02640185  RH  062%=      5-min Rain = 0
KLE1 200814Z 11006KT 26/19 A3001 RMK A01 T02630185  RH  062%=      5-min Rain = 0
KLE1 200815Z 11006KT 26/19 A3001 RMK A01 T02630185  RH  062%=      5-min Rain = 0
KLE1 200816Z 10006KT 26/19 A3001 RMK A01 T02630185  RH  062%=      5-min Rain = 0
KLE1 200817Z 10006KT 26/19 A3001 RMK A01 T02630185  RH  062%=      5-min Rain = 0
KLE1 200818Z 11006KT 26/19 A3001 RMK A01 T02630185  RH  062%=      5-min Rain = 0
KLE1 200819Z 11006KT 26/19 A3001 RMK A01 T02620185  RH  063%=      5-min Rain = 0
KLE1 200820Z 11006KT 26/19 A3001 RMK A01 T02620185  RH  063%=      5-min Rain = 0
KLE1 200821Z 10006KT 26/19 A3001 RMK A01 T02620185  RH  063%=      5-min Rain = 0
KLE1 200822Z 10006KT 26/19 A3001 RMK A01 T02610185  RH  063%=      5-min Rain = 0
KLE1 200823Z 10006KT 26/19 A3001 RMK A01 T02610185  RH  063%=      5-min Rain = 0
KLE1 200824Z 10006KT 26/19 A3001 RMK A01 T02610186  RH  063%=      5-min Rain = 0
KLE1 200825Z 10007KT 26/19 A3001 RMK A01 T02600186  RH  064%=      5-min Rain = 0
KLE1 200826Z 11007KT 26/19 A3001 RMK A01 T02590186  RH  064%=      5-min Rain = 0
KLE1 200827Z 11007KT 26/19 A3001 RMK A01 T02590186  RH  064%=      5-min Rain = 0
KLE1 200828Z 10007KT 26/19 A3001 RMK A01 T02580187  RH  065%=      5-min Rain = 0
KLE1 200829Z 11006KT 26/19 A3001 RMK A01 T02580187  RH  065%=      5-min Rain = 0
KLE1 200830Z 10006KT 26/19 A3001 RMK A01 T02580187  RH  065%=      5-min Rain = 0
KLE1 200831Z 10006KT 26/19 A3001 RMK A01 T02580187  RH  065%=      5-min Rain = 0
KLE1 200832Z 10006KT 26/19 A3001 RMK A01 T02570187  RH  065%=      5-min Rain = 0
KLE1 200833Z 11006KT 26/19 A3001 RMK A01 T02570187  RH  065%=      5-min Rain = 0
KLE1 200834Z 11006KT 26/19 A3001 RMK A01 T02570186  RH  065%=      5-min Rain = 0
KLE1 200835Z 11005KT 26/19 A3001 RMK A01 T02570186  RH  065%=      5-min Rain = 0
KLE1 200836Z 11006KT 26/19 A3001 RMK A01 T02570185  RH  065%=      5-min Rain = 0
KLE1 200837Z 11006KT 26/19 A3001 RMK A01 T02580185  RH  064%=      5-min Rain = 0
KLE1 200838Z 11006KT 26/19 A3001 RMK A01 T02580185  RH  064%=      5-min Rain = 0
KLE1 200839Z 11006KT 26/19 A3001 RMK A01 T02580185  RH  064%=      5-min Rain = 0
KLE1 200840Z 11006KT 26/19 A3001 RMK A01 T02580185  RH  064%=      5-min Rain = 0
KLE1 200841Z 11006KT 26/19 A3001 RMK A01 T02580185  RH  064%=      5-min Rain = 0
KLE1 200842Z 11005KT 26/19 A3001 RMK A01 T02580185  RH  064%=      5-min Rain = 0
KLE1 200843Z 11006KT 26/19 A3001 RMK A01 T02590186  RH  064%=      5-min Rain = 0
KLE1 200844Z 11006KT 26/19 A3001 RMK A01 T02580185  RH  064%=      5-min Rain = 0
KLE1 200845Z 11006KT 26/19 A3001 RMK A01 T02580185  RH  064%=      5-min Rain = 0
KLE1 200846Z 11006KT 26/19 A3001 RMK A01 T02580185  RH  064%=      5-min Rain = 0
KLE1 200847Z 11006KT 26/19 A3001 RMK A01 T02580185  RH  064%=      5-min Rain = 0
KLE1 200848Z 11006KT 26/19 A3001 RMK A01 T02590185  RH  064%=      5-min Rain = 0
KLE1 200849Z 11006KT 26/19 A3001 RMK A01 T02590186  RH  064%=      5-min Rain = 0
KLE1 200850Z 11006KT 26/19 A3001 RMK A01 T02590186  RH  064%=      5-min Rain = 0
KLE1 200851Z 11006KT 26/19 A3001 RMK A01 T02590186  RH  064%=      5-min Rain = 0
KLE1 200852Z 11006KT 26/19 A3001 RMK A01 T02580185  RH  064%=      5-min Rain = 0
KLE1 200853Z 11006KT 26/19 A3001 RMK A01 T02580186  RH  064%=      5-min Rain = 0
KLE1 200854Z 10006KT 26/19 A3001 RMK A01 T02570186  RH  065%=      5-min Rain = 0
KLE1 200855Z 10006KT 26/19 A3001 RMK A01 T02570185  RH  065%=      5-min Rain = 0
KLE1 200856Z 10006KT 26/19 A3001 RMK A01 T02570185  RH  065%=      5-min Rain = 0
KLE1 200857Z 10006KT 26/19 A3001 RMK A01 T02570185  RH  065%=      5-min Rain = 0
KLE1 200858Z 10006KT 26/19 A3001 RMK A01 T02570186  RH  065%=      5-min Rain = 0
KLE1 200859Z 10006KT 26/19 A3001 RMK A01 T02560186  RH  065%=      5-min Rain = 0
KLE1 200900Z 10006KT 26/19 A3001 RMK A01 T02560185  RH  065%=      5-min Rain = 0
KLE1 200901Z 10006KT 26/19 A3001 RMK A01 T02560185  RH  065%=      5-min Rain = 0
KLE1 200902Z 10006KT 26/19 A3001 RMK A01 T02560185  RH  065%=      5-min Rain = 0
KLE1 200903Z 10006KT 26/18 A3001 RMK A01 T02560184  RH  065%=      5-min Rain = 0
KLE1 200904Z 10006KT 26/18 A3001 RMK A01 T02560184  RH  065%=      5-min Rain = 0
KLE1 200905Z 10006KT 26/18 A3001 RMK A01 T02560184  RH  065%=      5-min Rain = 0
KLE1 200906Z 10006KT 26/18 A3001 RMK A01 T02560184  RH  065%=      5-min Rain = 0
KLE1 200907Z 10006KT 26/18 A3001 RMK A01 T02560184  RH  065%=      5-min Rain = 0
KLE1 200908Z 10007KT 26/18 A3001 RMK A01 T02560184  RH  065%=      5-min Rain = 0
KLE1 200909Z 10006KT 26/19 A3001 RMK A01 T02560185  RH  065%=      5-min Rain = 0
KLE1 200910Z 11006KT 26/19 A3001 RMK A01 T02560185  RH  065%=      5-min Rain = 0
KLE1 200911Z 11006KT 26/19 A3001 RMK A01 T02560185  RH  065%=      5-min Rain = 0
KLE1 200912Z 10006KT 26/19 A3001 RMK A01 T02560185  RH  065%=      5-min Rain = 0
KLE1 200913Z 10006KT 26/19 A3001 RMK A01 T02550185  RH  065%=      5-min Rain = 0
KLE1 200914Z 11006KT 26/19 A3001 RMK A01 T02560186  RH  065%=      5-min Rain = 0
KLE1 200915Z 10006KT 26/19 A3001 RMK A01 T02550185  RH  065%=      5-min Rain = 0
KLE1 200916Z 11006KT 25/19 A3001 RMK A01 T02540185  RH  066%=      5-min Rain = 0
KLE1 200917Z 11006KT 25/19 A3001 RMK A01 T02540185  RH  066%=      5-min Rain = 0
KLE1 200918Z 11005KT 25/19 A3001 RMK A01 T02540185  RH  066%=      5-min Rain = 0
KLE1 200919Z 11005KT 25/19 A3001 RMK A01 T02540185  RH  066%=      5-min Rain = 0
KLE1 200920Z 10005KT 25/19 A3001 RMK A01 T02540186  RH  066%=      5-min Rain = 0
KLE1 200921Z 10005KT 25/19 A3001 RMK A01 T02540185  RH  066%=      5-min Rain = 0
KLE1 200922Z 10005KT 25/19 A3001 RMK A01 T02540185  RH  066%=      5-min Rain = 0
KLE1 200923Z 10006KT 25/19 A3001 RMK A01 T02540185  RH  066%=      5-min Rain = 0
KLE1 200924Z 10006KT 25/19 A3001 RMK A01 T02540185  RH  066%=      5-min Rain = 0
KLE1 200925Z 10006KT 25/19 A3001 RMK A01 T02540185  RH  065%=      5-min Rain = 0
KLE1 200926Z 10005KT 25/19 A3001 RMK A01 T02540185  RH  065%=      5-min Rain = 0
KLE1 200927Z 10005KT 25/19 A3001 RMK A01 T02540185  RH  065%=      5-min Rain = 0
KLE1 200928Z 10005KT 25/18 A3001 RMK A01 T02540184  RH  065%=      5-min Rain = 0
KLE1 200929Z 10004KT 25/19 A3001 RMK A01 T02540185  RH  065%=      5-min Rain = 0
KLE1 200930Z 10004KT 25/19 A3001 RMK A01 T02540185  RH  065%=      5-min Rain = 0
KLE1 200931Z 09004KT 25/19 A3001 RMK A01 T02540185  RH  065%=      5-min Rain = 0
KLE1 200932Z 09004KT 25/18 A3001 RMK A01 T02540184  RH  065%=      5-min Rain = 0
KLE1 200933Z 09004KT 25/18 A3001 RMK A01 T02540184  RH  065%=      5-min Rain = 0
KLE1 200934Z 09005KT 25/18 A3001 RMK A01 T02540184  RH  065%=      5-min Rain = 0
KLE1 200935Z 09005KT 25/18 A3001 RMK A01 T02540184  RH  065%=      5-min Rain = 0
KLE1 200936Z 09004KT 25/18 A3001 RMK A01 T02540184  RH  065%=      5-min Rain = 0
KLE1 200937Z 09004KT 25/18 A3001 RMK A01 T02540184  RH  065%=      5-min Rain = 0
KLE1 200938Z 09004KT 25/18 A3001 RMK A01 T02540184  RH  065%=      5-min Rain = 0
KLE1 200939Z 08004KT 25/18 A3001 RMK A01 T02540184  RH  065%=      5-min Rain = 0
KLE1 200940Z 08004KT 26/18 A3001 RMK A01 T02550184  RH  065%=      5-min Rain = 0
KLE1 200941Z 08004KT 26/18 A3001 RMK A01 T02550184  RH  065%=      5-min Rain = 0
KLE1 200942Z 08004KT 26/18 A3001 RMK A01 T02550184  RH  065%=      5-min Rain = 0
KLE1 200943Z 08004KT 26/19 A3001 RMK A01 T02550185  RH  065%=      5-min Rain = 0
KLE1 200944Z 08004KT 26/19 A3001 RMK A01 T02550185  RH  065%=      5-min Rain = 0
KLE1 200945Z 08005KT 26/19 A3001 RMK A01 T02550185  RH  066%=      5-min Rain = 0
KLE1 200946Z 08005KT 25/19 A3001 RMK A01 T02540185  RH  066%=      5-min Rain = 0
KLE1 200947Z 08005KT 25/19 A3001 RMK A01 T02530185  RH  066%=      5-min Rain = 0
KLE1 200948Z 08005KT 25/19 A3001 RMK A01 T02530186  RH  066%=      5-min Rain = 0
KLE1 200949Z 08005KT 25/19 A3001 RMK A01 T02530186  RH  066%=      5-min Rain = 0
KLE1 200950Z 08005KT 25/19 A3001 RMK A01 T02520186  RH  066%=      5-min Rain = 0
KLE1 200951Z 08005KT 25/19 A3001 RMK A01 T02520186  RH  066%=      5-min Rain = 0
KLE1 200952Z 08005KT 25/19 A3001 RMK A01 T02520186  RH  067%=      5-min Rain = 0
KLE1 200953Z 08005KT 25/19 A3001 RMK A01 T02520186  RH  067%=      5-min Rain = 0
KLE1 200954Z 08005KT 25/19 A3001 RMK A01 T02510185  RH  067%=      5-min Rain = 0
KLE1 200955Z 08005KT 25/19 A3001 RMK A01 T02520186  RH  067%=      5-min Rain = 0
KLE1 200956Z 08005KT 25/19 A3001 RMK A01 T02520186  RH  067%=      5-min Rain = 0
KLE1 200957Z 08005KT 25/19 A3001 RMK A01 T02510185  RH  067%=      5-min Rain = 0
KLE1 200958Z 09005KT 25/19 A3001 RMK A01 T02510186  RH  067%=      5-min Rain = 0
KLE1 200959Z 09005KT 25/19 A3001 RMK A01 T02510185  RH  067%=      5-min Rain = 0
KLE1 201000Z 09005KT 25/19 A3001 RMK A01 T02510186  RH  067%=      5-min Rain = 0
KLE1 201001Z 09005KT 25/19 A3001 RMK A01 T02500185  RH  067%=      5-min Rain = 0
KLE1 201002Z 09005KT 25/19 A3001 RMK A01 T02500185  RH  067%=      5-min Rain = 0
KLE1 201003Z 10006KT 25/19 A3001 RMK A01 T02500185  RH  067%=      5-min Rain = 0
KLE1 201004Z 10006KT 25/19 A3001 RMK A01 T02490185  RH  068%=      5-min Rain = 0
KLE1 201005Z 10006KT 25/19 A3001 RMK A01 T02490186  RH  068%=      5-min Rain = 0
KLE1 201006Z 10005KT 25/19 A3001 RMK A01 T02480185  RH  068%=      5-min Rain = 0
KLE1 201007Z 10005KT 25/19 A3001 RMK A01 T02480185  RH  068%=      5-min Rain = 0
KLE1 201008Z 10005KT 25/19 A3001 RMK A01 T02480185  RH  068%=      5-min Rain = 0
KLE1 201009Z 10005KT 25/19 A3001 RMK A01 T02480186  RH  068%=      5-min Rain = 0
KLE1 201010Z 10005KT 25/19 A3001 RMK A01 T02470185  RH  069%=      5-min Rain = 0
KLE1 201011Z 11006KT 25/19 A3001 RMK A01 T02470185  RH  069%=      5-min Rain = 0
KLE1 201012Z 10006KT 25/19 A3001 RMK A01 T02470185  RH  068%=      5-min Rain = 0
KLE1 201013Z 11005KT 25/19 A3001 RMK A01 T02480185  RH  068%=      5-min Rain = 0
KLE1 201014Z 11005KT 25/19 A3001 RMK A01 T02490185  RH  068%=      5-min Rain = 0
KLE1 201015Z 11006KT 25/19 A3001 RMK A01 T02490185  RH  067%=      5-min Rain = 0
KLE1 201016Z 10006KT 25/19 A3001 RMK A01 T02500185  RH  067%=      5-min Rain = 0
KLE1 201017Z 11005KT 25/19 A3001 RMK A01 T02510185  RH  067%=      5-min Rain = 0
KLE1 201018Z 11005KT 25/19 A3001 RMK A01 T02500185  RH  067%=      5-min Rain = 0
KLE1 201019Z 10005KT 25/19 A3001 RMK A01 T02500185  RH  067%=      5-min Rain = 0
KLE1 201020Z 11006KT 25/19 A3001 RMK A01 T02510186  RH  067%=      5-min Rain = 0
KLE1 201021Z 11006KT 25/19 A3001 RMK A01 T02500186  RH  067%=      5-min Rain = 0
KLE1 201022Z 11006KT 25/19 A3001 RMK A01 T02500185  RH  067%=      5-min Rain = 0
KLE1 201023Z 11005KT 25/19 A3001 RMK A01 T02500185  RH  067%=      5-min Rain = 0
KLE1 201024Z 11005KT 25/19 A3001 RMK A01 T02500185  RH  067%=      5-min Rain = 0
KLE1 201025Z 11005KT 25/19 A3001 RMK A01 T02500185  RH  067%=      5-min Rain = 0
KLE1 201026Z 11005KT 25/19 A3001 RMK A01 T02500185  RH  067%=      5-min Rain = 0
KLE1 201027Z 11005KT 25/19 A3001 RMK A01 T02500185  RH  067%=      5-min Rain = 0
KLE1 201028Z 11005KT 25/19 A3001 RMK A01 T02500186  RH  067%=      5-min Rain = 0
KLE1 201029Z 11004KT 25/19 A3001 RMK A01 T02500185  RH  067%=      5-min Rain = 0
KLE1 201030Z 11005KT 25/19 A3001 RMK A01 T02500185  RH  067%=      5-min Rain = 0
KLE1 201031Z 11005KT 25/19 A3001 RMK A01 T02500185  RH  067%=      5-min Rain = 0
KLE1 201032Z 10006KT 25/19 A3002 RMK A01 T02500185  RH  067%=      5-min Rain = 0
KLE1 201033Z 11006KT 25/19 A3002 RMK A01 T02500185  RH  067%=      5-min Rain = 0
KLE1 201034Z 11005KT 25/19 A3002 RMK A01 T02510185  RH  067%=      5-min Rain = 0
KLE1 201035Z 10005KT 25/19 A3002 RMK A01 T02510185  RH  067%=      5-min Rain = 0
KLE1 201036Z 10005KT 25/19 A3002 RMK A01 T02500185  RH  067%=      5-min Rain = 0
KLE1 201037Z 10005KT 25/19 A3002 RMK A01 T02500185  RH  067%=      5-min Rain = 0
KLE1 201038Z 11005KT 25/19 A3002 RMK A01 T02500185  RH  067%=      5-min Rain = 0
KLE1 201039Z 11005KT 25/19 A3002 RMK A01 T02500185  RH  067%=      5-min Rain = 0
KLE1 201040Z 11005KT 25/18 A3002 RMK A01 T02500184  RH  067%=      5-min Rain = 0
KLE1 201041Z 10004KT 25/19 A3002 RMK A01 T02500185  RH  067%=      5-min Rain = 0
KLE1 201042Z 10004KT 25/19 A3002 RMK A01 T02490185  RH  067%=      5-min Rain = 0
KLE1 201043Z 10003KT 25/19 A3002 RMK A01 T02490185  RH  067%=      5-min Rain = 0
KLE1 201044Z 10004KT 25/18 A3002 RMK A01 T02490184  RH  067%=      5-min Rain = 0
KLE1 201045Z 09003KT 25/18 A3002 RMK A01 T02490184  RH  067%=      5-min Rain = 0
KLE1 201046Z 09003KT 25/18 A3002 RMK A01 T02490184  RH  067%=      5-min Rain = 0
KLE1 201047Z 09003KT 25/18 A3002 RMK A01 T02490184  RH  067%=      5-min Rain = 0
KLE1 201048Z 08003KT 25/18 A3002 RMK A01 T02490184  RH  067%=      5-min Rain = 0
KLE1 201049Z 09004KT 25/18 A3002 RMK A01 T02490184  RH  067%=      5-min Rain = 0
KLE1 201050Z 09003KT 25/18 A3002 RMK A01 T02490183  RH  067%=      5-min Rain = 0
KLE1 201051Z 09003KT 25/18 A3002 RMK A01 T02490183  RH  067%=      5-min Rain = 0
KLE1 201052Z 08004KT 25/18 A3002 RMK A01 T02500183  RH  067%=      5-min Rain = 0
KLE1 201053Z 08004KT 25/18 A3002 RMK A01 T02500183  RH  067%=      5-min Rain = 0
KLE1 201054Z 08004KT 25/18 A3002 RMK A01 T02500184  RH  067%=      5-min Rain = 0
KLE1 201055Z 09004KT 25/18 A3002 RMK A01 T02500184  RH  067%=      5-min Rain = 0
KLE1 201056Z 08004KT 25/18 A3002 RMK A01 T02490184  RH  067%=      5-min Rain = 0
KLE1 201057Z 09004KT 25/19 A3002 RMK A01 T02490185  RH  067%=      5-min Rain = 0
KLE1 201058Z 09004KT 25/18 A3002 RMK A01 T02480184  RH  067%=      5-min Rain = 0
KLE1 201059Z 09004KT 25/19 A3002 RMK A01 T02480185  RH  068%=      5-min Rain = 0
KLE1 201100Z 09004KT 25/18 A3002 RMK A01 T02480184  RH  068%=      5-min Rain = 0
KLE1 201101Z 09003KT 25/18 A3002 RMK A01 T02480183  RH  067%=      5-min Rain = 0
KLE1 201102Z 09003KT 25/18 A3002 RMK A01 T02480182  RH  067%=      5-min Rain = 0
KLE1 201103Z 10003KT 25/18 A3002 RMK A01 T02480183  RH  067%=      5-min Rain = 0
KLE1 201104Z 10003KT 25/18 A3002 RMK A01 T02480182  RH  067%=      5-min Rain = 0
KLE1 201105Z 10003KT 25/18 A3002 RMK A01 T02490182  RH  067%=      5-min Rain = 0
KLE1 201106Z 11003KT 25/18 A3002 RMK A01 T02490182  RH  067%=      5-min Rain = 0
KLE1 201107Z 11003KT 25/18 A3002 RMK A01 T02490182  RH  066%=      5-min Rain = 0
KLE1 201108Z 11003KT 25/18 A3002 RMK A01 T02500182  RH  066%=      5-min Rain = 0
KLE1 201109Z 12003KT 25/18 A3002 RMK A01 T02500182  RH  066%=      5-min Rain = 0
KLE1 201110Z 12003KT 25/18 A3002 RMK A01 T02510182  RH  066%=      5-min Rain = 0
KLE1 201111Z 12003KT 25/18 A3002 RMK A01 T02510182  RH  065%=      5-min Rain = 0
KLE1 201112Z 12003KT 25/18 A3002 RMK A01 T02510182  RH  065%=      5-min Rain = 0
KLE1 201113Z 12003KT 25/18 A3002 RMK A01 T02520182  RH  065%=      5-min Rain = 0
KLE1 201114Z 13003KT 25/18 A3002 RMK A01 T02520183  RH  066%=      5-min Rain = 0
KLE1 201115Z 12003KT 25/18 A3002 RMK A01 T02510183  RH  066%=      5-min Rain = 0
KLE1 201116Z 12003KT 25/18 A3002 RMK A01 T02510183  RH  066%=      5-min Rain = 0
KLE1 201117Z 12003KT 25/18 A3002 RMK A01 T02510183  RH  066%=      5-min Rain = 0
KLE1 201118Z 12003KT 25/18 A3002 RMK A01 T02510182  RH  066%=      5-min Rain = 0
KLE1 201119Z 12004KT 25/18 A3002 RMK A01 T02510183  RH  066%=      5-min Rain = 0
KLE1 201120Z 12004KT 25/18 A3002 RMK A01 T02520182  RH  065%=      5-min Rain = 0
KLE1 201121Z 12004KT 25/18 A3002 RMK A01 T02520183  RH  065%=      5-min Rain = 0
KLE1 201122Z 12004KT 25/18 A3002 RMK A01 T02520182  RH  065%=      5-min Rain = 0
KLE1 201123Z 12003KT 25/18 A3002 RMK A01 T02520183  RH  065%=      5-min Rain = 0
KLE1 201124Z 12004KT 25/18 A3002 RMK A01 T02520183  RH  066%=      5-min Rain = 0
KLE1 201125Z 12003KT 25/18 A3002 RMK A01 T02520183  RH  066%=      5-min Rain = 0
KLE1 201126Z 11003KT 25/18 A3002 RMK A01 T02510184  RH  066%=      5-min Rain = 0
KLE1 201127Z 11003KT 25/18 A3002 RMK A01 T02510183  RH  066%=      5-min Rain = 0
KLE1 201128Z 11003KT 25/18 A3002 RMK A01 T02510183  RH  066%=      5-min Rain = 0
KLE1 201129Z 10003KT 25/18 A3003 RMK A01 T02500183  RH  066%=      5-min Rain = 0
KLE1 201130Z 10003KT 25/18 A3003 RMK A01 T02510183  RH  066%=      5-min Rain = 0
KLE1 201131Z 10003KT 25/18 A3003 RMK A01 T02510183  RH  066%=      5-min Rain = 0
KLE1 201132Z 10003KT 25/18 A3003 RMK A01 T02500183  RH  066%=      5-min Rain = 0
KLE1 201133Z 09003KT 25/18 A3003 RMK A01 T02490183  RH  067%=      5-min Rain = 0
KLE1 201134Z 09003KT 25/18 A3003 RMK A01 T02480184  RH  067%=      5-min Rain = 0
KLE1 201135Z 09003KT 25/18 A3003 RMK A01 T02470184  RH  068%=      5-min Rain = 0
KLE1 201136Z 08003KT 25/18 A3003 RMK A01 T02460184  RH  068%=      5-min Rain = 0
KLE1 201137Z 08003KT 25/19 A3003 RMK A01 T02460185  RH  069%=      5-min Rain = 0
KLE1 201138Z 08003KT 25/18 A3003 RMK A01 T02460184  RH  069%=      5-min Rain = 0
KLE1 201139Z 08003KT 25/18 A3003 RMK A01 T02460184  RH  068%=      5-min Rain = 0
KLE1 201140Z 08003KT 25/18 A3003 RMK A01 T02460184  RH  069%=      5-min Rain = 0
KLE1 201141Z 08003KT 25/19 A3003 RMK A01 T02450185  RH  069%=      5-min Rain = 0
KLE1 201142Z 09003KT 25/19 A3003 RMK A01 T02450185  RH  069%=      5-min Rain = 0
KLE1 201143Z 09003KT 25/18 A3003 RMK A01 T02450184  RH  069%=      5-min Rain = 0
KLE1 201144Z 09003KT 25/18 A3003 RMK A01 T02450184  RH  069%=      5-min Rain = 0
KLE1 201145Z 08003KT 25/18 A3003 RMK A01 T02450184  RH  069%=      5-min Rain = 0
KLE1 201146Z 08003KT 25/18 A3003 RMK A01 T02450183  RH  068%=      5-min Rain = 0
KLE1 201147Z 08003KT 25/18 A3003 RMK A01 T02450183  RH  068%=      5-min Rain = 0
KLE1 201148Z 09003KT 25/18 A3003 RMK A01 T02460183  RH  068%=      5-min Rain = 0
KLE1 201149Z 09003KT 25/18 A3003 RMK A01 T02460182  RH  068%=      5-min Rain = 0
KLE1 201150Z 09003KT 25/18 A3003 RMK A01 T02470182  RH  067%=      5-min Rain = 0
KLE1 201151Z 09003KT 25/18 A3003 RMK A01 T02470182  RH  067%=      5-min Rain = 0
KLE1 201152Z 09003KT 25/18 A3003 RMK A01 T02470182  RH  067%=      5-min Rain = 0
KLE1 201153Z 09003KT 25/18 A3003 RMK A01 T02470182  RH  067%=      5-min Rain = 0
KLE1 201154Z 08003KT 25/18 A3003 RMK A01 T02470181  RH  067%=      5-min Rain = 0
KLE1 201155Z 08003KT 25/18 A3003 RMK A01 T02470182  RH  067%=      5-min Rain = 0
KLE1 201156Z 08003KT 25/18 A3003 RMK A01 T02480183  RH  067%=      5-min Rain = 0
KLE1 201157Z 07003KT 25/18 A3003 RMK A01 T02480183  RH  067%=      5-min Rain = 0
KLE1 201158Z 06003KT 25/18 A3003 RMK A01 T02470183  RH  067%=      5-min Rain = 0
KLE1 201159Z 06003KT 25/18 A3003 RMK A01 T02460183  RH  068%=      5-min Rain = 0
KLE1 201200Z 06003KT 25/18 A3003 RMK A01 T02460183  RH  068%=      5-min Rain = 0
KLE1 201201Z 07003KT 25/18 A3003 RMK A01 T02450184  RH  069%=      5-min Rain = 0
KLE1 201202Z 07004KT 24/18 A3003 RMK A01 T02440184  RH  069%=      5-min Rain = 0
KLE1 201203Z 07004KT 24/18 A3003 RMK A01 T02440184  RH  069%=      5-min Rain = 0
KLE1 201204Z 07004KT 24/19 A3003 RMK A01 T02430186  RH  070%=      5-min Rain = 0
KLE1 201205Z 07004KT 24/19 A3003 RMK A01 T02420185  RH  070%=      5-min Rain = 0
KLE1 201206Z 07005KT 24/19 A3003 RMK A01 T02420186  RH  071%=      5-min Rain = 0
KLE1 201207Z 07005KT 24/19 A3003 RMK A01 T02420186  RH  071%=      5-min Rain = 0
KLE1 201208Z 07005KT 24/19 A3004 RMK A01 T02410186  RH  071%=      5-min Rain = 0
KLE1 201209Z 08005KT 24/19 A3004 RMK A01 T02410185  RH  071%=      5-min Rain = 0
KLE1 201210Z 08004KT 24/19 A3004 RMK A01 T02410185  RH  071%=      5-min Rain = 0
KLE1 201211Z 07004KT 24/19 A3004 RMK A01 T02400185  RH  071%=      5-min Rain = 0
KLE1 201212Z 07004KT 24/19 A3004 RMK A01 T02400185  RH  071%=      5-min Rain = 0
KLE1 201213Z 07004KT 24/19 A3004 RMK A01 T02400186  RH  072%=      5-min Rain = 0
KLE1 201214Z 07004KT 24/19 A3004 RMK A01 T02390186  RH  072%=      5-min Rain = 0
KLE1 201215Z 07004KT 24/19 A3004 RMK A01 T02390186  RH  072%=      5-min Rain = 0
KLE1 201216Z 08004KT 24/19 A3004 RMK A01 T02380186  RH  072%=      5-min Rain = 0
KLE1 201217Z 08004KT 24/19 A3004 RMK A01 T02380186  RH  072%=      5-min Rain = 0
KLE1 201218Z 08004KT 24/19 A3004 RMK A01 T02380186  RH  073%=      5-min Rain = 0
KLE1 201219Z 08005KT 24/19 A3004 RMK A01 T02370185  RH  073%=      5-min Rain = 0
KLE1 201220Z 08005KT 24/19 A3004 RMK A01 T02370185  RH  073%=      5-min Rain = 0
KLE1 201221Z 08005KT 24/19 A3004 RMK A01 T02380185  RH  072%=      5-min Rain = 0
KLE1 201222Z 08005KT 24/18 A3004 RMK A01 T02380184  RH  072%=      5-min Rain = 0
KLE1 201223Z 08005KT 24/18 A3004 RMK A01 T02380184  RH  072%=      5-min Rain = 0
KLE1 201224Z 08004KT 24/19 A3004 RMK A01 T02390185  RH  072%=      5-min Rain = 0
KLE1 201225Z 08004KT 24/18 A3004 RMK A01 T02390184  RH  072%=      5-min Rain = 0
KLE1 201226Z 07004KT 24/18 A3004 RMK A01 T02390184  RH  071%=      5-min Rain = 0
KLE1 201227Z 07004KT 24/18 A3004 RMK A01 T02390184  RH  071%=      5-min Rain = 0
KLE1 201228Z 07004KT 24/18 A3004 RMK A01 T02400184  RH  071%=      5-min Rain = 0
KLE1 201229Z 07003KT 24/18 A3004 RMK A01 T02400184  RH  071%=      5-min Rain = 0
KLE1 201230Z 07003KT 24/18 A3004 RMK A01 T02410184  RH  070%=      5-min Rain = 0
KLE1 201231Z 07004KT 24/18 A3004 RMK A01 T02410184  RH  070%=      5-min Rain = 0
KLE1 201232Z 08003KT 24/18 A3004 RMK A01 T02420184  RH  070%=      5-min Rain = 0
KLE1 201233Z 07003KT 24/18 A3004 RMK A01 T02420184  RH  070%=      5-min Rain = 0
KLE1 201234Z 08003KT 24/18 A3004 RMK A01 T02430184  RH  069%=      5-min Rain = 0
KLE1 201235Z 07004KT 24/19 A3004 RMK A01 T02440185  RH  069%=      5-min Rain = 0
KLE1 201236Z 08004KT 24/19 A3004 RMK A01 T02440185  RH  070%=      5-min Rain = 0
KLE1 201237Z 07004KT 24/18 A3004 RMK A01 T02440184  RH  069%=      5-min Rain = 0
KLE1 201238Z 07004KT 25/19 A3004 RMK A01 T02450185  RH  069%=      5-min Rain = 0
KLE1 201239Z 07004KT 25/19 A3004 RMK A01 T02450185  RH  069%=      5-min Rain = 0
KLE1 201240Z 07004KT 25/19 A3004 RMK A01 T02450185  RH  069%=      5-min Rain = 0
KLE1 201241Z 07004KT 25/19 A3004 RMK A01 T02450185  RH  069%=      5-min Rain = 0
KLE1 201242Z 07004KT 25/19 A3004 RMK A01 T02450185  RH  069%=      5-min Rain = 0
KLE1 201243Z 07004KT 25/19 A3004 RMK A01 T02450186  RH  070%=      5-min Rain = 0
KLE1 201244Z 07004KT 25/19 A3004 RMK A01 T02450187  RH  070%=      5-min Rain = 0
KLE1 201245Z 07003KT 25/19 A3004 RMK A01 T02450187  RH  070%=      5-min Rain = 0
KLE1 201246Z 07004KT 25/19 A3004 RMK A01 T02450188  RH  071%=      5-min Rain = 0
KLE1 201247Z 07004KT 24/19 A3004 RMK A01 T02440188  RH  071%=      5-min Rain = 0
KLE1 201248Z 07004KT 24/19 A3004 RMK A01 T02430188  RH  071%=      5-min Rain = 0
KLE1 201249Z 07004KT 24/19 A3004 RMK A01 T02430188  RH  071%=      5-min Rain = 0
KLE1 201250Z 07004KT 24/19 A3004 RMK A01 T02420188  RH  072%=      5-min Rain = 0
KLE1 201251Z 07004KT 24/19 A3004 RMK A01 T02410188  RH  072%=      5-min Rain = 0
KLE1 201252Z 08004KT 24/19 A3004 RMK A01 T02410187  RH  072%=      5-min Rain = 0
KLE1 201253Z 08004KT 24/19 A3004 RMK A01 T02410188  RH  072%=      5-min Rain = 0
KLE1 201254Z 08005KT 24/19 A3005 RMK A01 T02400188  RH  073%=      5-min Rain = 0
KLE1 201255Z 08005KT 24/19 A3005 RMK A01 T02400188  RH  073%=      5-min Rain = 0
KLE1 201256Z 08005KT 24/19 A3005 RMK A01 T02400188  RH  073%=      5-min Rain = 0
KLE1 201257Z 08005KT 24/19 A3005 RMK A01 T02400189  RH  073%=      5-min Rain = 0
KLE1 201258Z 09005KT 24/19 A3005 RMK A01 T02400189  RH  073%=      5-min Rain = 0
KLE1 201259Z 09005KT 24/19 A3005 RMK A01 T02410189  RH  072%=      5-min Rain = 0
KLE1 201300Z 09005KT 24/19 A3005 RMK A01 T02420188  RH  072%=      5-min Rain = 0
KLE1 201301Z 09005KT 24/19 A3005 RMK A01 T02420189  RH  072%=      5-min Rain = 0
KLE1 201302Z 10004KT 24/19 A3005 RMK A01 T02430188  RH  071%=      5-min Rain = 0
KLE1 201303Z 09004KT 24/19 A3005 RMK A01 T02430189  RH  072%=      5-min Rain = 0
KLE1 201304Z 09004KT 24/19 A3005 RMK A01 T02440190  RH  072%=      5-min Rain = 0
KLE1 201305Z 10004KT 24/19 A3005 RMK A01 T02440190  RH  072%=      5-min Rain = 0
KLE1 201306Z 09004KT 25/19 A3005 RMK A01 T02450190  RH  072%=      5-min Rain = 0
KLE1 201307Z 09004KT 25/19 A3005 RMK A01 T02450190  RH  071%=      5-min Rain = 0
KLE1 201308Z 09005KT 25/19 A3005 RMK A01 T02460191  RH  071%=      5-min Rain = 0
KLE1 201309Z 09004KT 25/19 A3005 RMK A01 T02460190  RH  071%=      5-min Rain = 0
KLE1 201310Z 08004KT 25/19 A3005 RMK A01 T02460191  RH  072%=      5-min Rain = 0
KLE1 201311Z 08004KT 25/19 A3005 RMK A01 T02460193  RH  072%=      5-min Rain = 0
KLE1 201312Z 08004KT 25/19 A3005 RMK A01 T02460192  RH  072%=      5-min Rain = 0
KLE1 201313Z 08003KT 25/19 A3005 RMK A01 T02470192  RH  071%=      5-min Rain = 0
KLE1 201314Z 08004KT 25/19 A3005 RMK A01 T02470191  RH  071%=      5-min Rain = 0
KLE1 201315Z 08004KT 25/19 A3005 RMK A01 T02480192  RH  071%=      5-min Rain = 0
KLE1 201316Z 08003KT 25/19 A3005 RMK A01 T02480191  RH  070%=      5-min Rain = 0
KLE1 201317Z 07003KT 25/19 A3005 RMK A01 T02490192  RH  070%=      5-min Rain = 0
KLE1 201318Z 07003KT 25/19 A3005 RMK A01 T02500192  RH  070%=      5-min Rain = 0
KLE1 201319Z 08003KT 25/19 A3005 RMK A01 T02510193  RH  070%=      5-min Rain = 0
KLE1 201320Z 07003KT 25/19 A3005 RMK A01 T02530191  RH  069%=      5-min Rain = 0
KLE1 201321Z 07003KT 25/19 A3005 RMK A01 T02540192  RH  069%=      5-min Rain = 0
KLE1 201322Z 07003KT 25/19 A3005 RMK A01 T02540192  RH  068%=      5-min Rain = 0
KLE1 201323Z 07003KT 26/19 A3005 RMK A01 T02550194  RH  069%=      5-min Rain = 0
KLE1 201324Z 07003KT 26/19 A3005 RMK A01 T02560194  RH  069%=      5-min Rain = 0
KLE1 201325Z 07002KT 26/19 A3005 RMK A01 T02570194  RH  068%=      5-min Rain = 0
KLE1 201326Z 08003KT 26/19 A3005 RMK A01 T02580193  RH  067%=      5-min Rain = 0
KLE1 201327Z 08002KT 26/19 A3005 RMK A01 T02590194  RH  068%=      5-min Rain = 0
KLE1 201328Z 08002KT 26/19 A3005 RMK A01 T02590193  RH  067%=      5-min Rain = 0
KLE1 201329Z 09003KT 26/19 A3005 RMK A01 T02600192  RH  066%=      5-min Rain = 0
KLE1 201330Z 09002KT 26/19 A3005 RMK A01 T02600192  RH  066%=      5-min Rain = 0
KLE1 201331Z 09002KT 26/19 A3005 RMK A01 T02610192  RH  066%=      5-min Rain = 0
KLE1 201332Z 10002KT 26/19 A3005 RMK A01 T02620193  RH  066%=      5-min Rain = 0
KLE1 201333Z 10002KT 26/19 A3005 RMK A01 T02620190  RH  065%=      5-min Rain = 0
KLE1 201334Z 10002KT 26/19 A3005 RMK A01 T02630191  RH  065%=      5-min Rain = 0
KLE1 201335Z 11002KT 26/19 A3005 RMK A01 T02630191  RH  064%=      5-min Rain = 0
KLE1 201336Z 09002KT 26/19 A3005 RMK A01 T02640190  RH  064%=      5-min Rain = 0
KLE1 201337Z 09002KT 27/19 A3005 RMK A01 T02650191  RH  064%=      5-min Rain = 0
KLE1 201338Z 07002KT 27/19 A3005 RMK A01 T02660191  RH  064%=      5-min Rain = 0
KLE1 201339Z 10001KT 27/19 A3005 RMK A01 T02670192  RH  064%=      5-min Rain = 0
KLE1 201340Z 10002KT 27/19 A3005 RMK A01 T02680192  RH  063%=      5-min Rain = 0
KLE1 201341Z 10002KT 27/19 A3006 RMK A01 T02680192  RH  063%=      5-min Rain = 0
KLE1 201342Z 11002KT 27/19 A3006 RMK A01 T02690192  RH  063%=      5-min Rain = 0
KLE1 201343Z 13003KT 27/19 A3006 RMK A01 T02700188  RH  061%=      5-min Rain = 0
KLE1 201344Z 13003KT 27/19 A3006 RMK A01 T02720189  RH  060%=      5-min Rain = 0
KLE1 201345Z 13002KT 27/18 A3006 RMK A01 T02730184  RH  058%=      5-min Rain = 0
KLE1 201346Z 13002KT 27/19 A3006 RMK A01 T02740189  RH  060%=      5-min Rain = 0
KLE1 201347Z 18002KT 28/19 A3005 RMK A01 T02750189  RH  059%=      5-min Rain = 0
KLE1 201348Z 18002KT 28/19 A3005 RMK A01 T02760185  RH  058%=      5-min Rain = 0
KLE1 201349Z 20001KT 28/18 A3005 RMK A01 T02760182  RH  057%=      5-min Rain = 0
KLE1 201350Z 20002KT 28/18 A3005 RMK A01 T02760183  RH  057%=      5-min Rain = 0
KLE1 201351Z 21002KT 28/18 A3005 RMK A01 T02750181  RH  057%=      5-min Rain = 0
KLE1 201352Z 20002KT 28/18 A3005 RMK A01 T02750184  RH  057%=      5-min Rain = 0
KLE1 201353Z 19002KT 28/19 A3005 RMK A01 T02760185  RH  058%=      5-min Rain = 0
KLE1 201354Z 20001KT 28/18 A3005 RMK A01 T02760184  RH  057%=      5-min Rain = 0
KLE1 201355Z 22001KT 28/19 A3005 RMK A01 T02760187  RH  058%=      5-min Rain = 0
KLE1 201356Z 21001KT 28/19 A3005 RMK A01 T02770186  RH  058%=      5-min Rain = 0
KLE1 201357Z 22001KT 28/19 A3005 RMK A01 T02770187  RH  058%=      5-min Rain = 0
KLE1 201358Z 23002KT 28/18 A3005 RMK A01 T02780184  RH  056%=      5-min Rain = 0
KLE1 201359Z 23002KT 28/18 A3005 RMK A01 T02780183  RH  056%=      5-min Rain = 0
KLE1 201400Z 23001KT 28/18 A3005 RMK A01 T02780184  RH  057%=      5-min Rain = 0
KLE1 201401Z 25001KT 28/19 A3005 RMK A01 T02780186  RH  057%=      5-min Rain = 0
KLE1 201402Z 26001KT 28/19 A3005 RMK A01 T02780186  RH  058%=      5-min Rain = 0
KLE1 201403Z 26000KT 28/19 A3005 RMK A01 T02780186  RH  057%=      5-min Rain = 0
KLE1 201404Z 29001KT 28/19 A3005 RMK A01 T02790186  RH  057%=      5-min Rain = 0
KLE1 201405Z 29001KT 28/19 A3005 RMK A01 T02800187  RH  057%=      5-min Rain = 0
KLE1 201406Z 31001KT 28/19 A3005 RMK A01 T02810190  RH  058%=      5-min Rain = 0
KLE1 201407Z 33001KT 28/19 A3005 RMK A01 T02820190  RH  057%=      5-min Rain = 0
KLE1 201408Z 33001KT 28/19 A3005 RMK A01 T02830188  RH  056%=      5-min Rain = 0
KLE1 201409Z 00000KT 28/19 A3005 RMK A01 T02840188  RH  056%=      5-min Rain = 0
KLE1 201410Z 21000KT 29/19 A3005 RMK A01 T02870189  RH  055%=      5-min Rain = 0
KLE1 201411Z 18000KT 29/19 A3005 RMK A01 T02890186  RH  054%=      5-min Rain = 0
KLE1 201412Z 22001KT 29/19 A3005 RMK A01 T02900186  RH  054%=      5-min Rain = 0
KLE1 201413Z 23001KT 29/19 A3005 RMK A01 T02900186  RH  053%=      5-min Rain = 0
KLE1 201414Z 22001KT 29/19 A3005 RMK A01 T02910187  RH  054%=      5-min Rain = 0
KLE1 201415Z 22002KT 29/19 A3005 RMK A01 T02910185  RH  053%=      5-min Rain = 0
KLE1 201416Z 22001KT 29/18 A3005 RMK A01 T02910182  RH  052%=      5-min Rain = 0
KLE1 201417Z 16002KT 29/19 A3005 RMK A01 T02920185  RH  053%=      5-min Rain = 0
KLE1 201418Z 18002KT 29/19 A3006 RMK A01 T02930186  RH  052%=      5-min Rain = 0
KLE1 201419Z 18003KT 29/18 A3006 RMK A01 T02940184  RH  051%=      5-min Rain = 0
KLE1 201420Z 17002KT 29/18 A3006 RMK A01 T02940183  RH  051%=      5-min Rain = 0
KLE1 201421Z 18002KT 29/18 A3006 RMK A01 T02940183  RH  051%=      5-min Rain = 0
KLE1 201422Z 20002KT 29/18 A3006 RMK A01 T02940184  RH  052%=      5-min Rain = 0
KLE1 201423Z 21002KT 29/19 A3006 RMK A01 T02940186  RH  052%=      5-min Rain = 0
KLE1 201424Z 21002KT 29/19 A3006 RMK A01 T02930187  RH  053%=      5-min Rain = 0
KLE1 201425Z 22001KT 29/19 A3006 RMK A01 T02930186  RH  053%=      5-min Rain = 0
KLE1 201426Z 18001KT 29/19 A3006 RMK A01 T02940190  RH  054%=      5-min Rain = 0
KLE1 201427Z 18002KT 30/19 A3006 RMK A01 T02950188  RH  053%=      5-min Rain = 0
KLE1 201428Z 18002KT 30/19 A3006 RMK A01 T02950188  RH  052%=      5-min Rain = 0
KLE1 201429Z 20002KT 30/19 A3006 RMK A01 T02960189  RH  053%=      5-min Rain = 0
KLE1 201430Z 21002KT 30/19 A3006 RMK A01 T02970189  RH  052%=      5-min Rain = 0
KLE1 201431Z 20002KT 30/19 A3006 RMK A01 T02990192  RH  053%=      5-min Rain = 0
KLE1 201432Z 18001KT 30/20 A3006 RMK A01 T03000195  RH  053%=      5-min Rain = 0
KLE1 201433Z 17001KT 30/19 A3006 RMK A01 T03010193  RH  052%=      5-min Rain = 0
KLE1 201434Z 19001KT 30/19 A3006 RMK A01 T03040193  RH  052%=      5-min Rain = 0
KLE1 201435Z 20001KT 31/20 A3006 RMK A01 T03060195  RH  052%=      5-min Rain = 0
KLE1 201436Z 19002KT 31/19 A3006 RMK A01 T03090192  RH  050%=      5-min Rain = 0
KLE1 201437Z 19003KT 31/19 A3006 RMK A01 T03090191  RH  049%=      5-min Rain = 0
KLE1 201438Z 20003KT 31/19 A3006 RMK A01 T03090188  RH  049%=      5-min Rain = 0
KLE1 201439Z 21001KT 31/19 A3006 RMK A01 T03070187  RH  049%=      5-min Rain = 0
KLE1 201440Z 22002KT 31/19 A3006 RMK A01 T03070186  RH  049%=      5-min Rain = 0
KLE1 201441Z 18000KT 31/19 A3006 RMK A01 T03060187  RH  049%=      5-min Rain = 0
KLE1 201442Z 21001KT 31/18 A3006 RMK A01 T03050184  RH  048%=      5-min Rain = 0
KLE1 201443Z 27000KT 31/19 A3006 RMK A01 T03060186  RH  049%=      5-min Rain = 0
KLE1 201444Z 25002KT 31/19 A3006 RMK A01 T03070188  RH  049%=      5-min Rain = 0
KLE1 201445Z 22003KT 31/19 A3006 RMK A01 T03090188  RH  049%=      5-min Rain = 0
KLE1 201446Z 23002KT 31/19 A3006 RMK A01 T03090187  RH  048%=      5-min Rain = 0
KLE1 201447Z 19002KT 31/19 A3006 RMK A01 T03080185  RH  048%=      5-min Rain = 0
KLE1 201448Z 21001KT 31/18 A3006 RMK A01 T03080181  RH  047%=      5-min Rain = 0
KLE1 201449Z 22002KT 31/18 A3005 RMK A01 T03090183  RH  047%=      5-min Rain = 0
KLE1 201450Z 22001KT 31/19 A3005 RMK A01 T03100185  RH  047%=      5-min Rain = 0
KLE1 201451Z 18002KT 31/19 A3005 RMK A01 T03110186  RH  047%=      5-min Rain = 0
KLE1 201452Z 18002KT 31/19 A3005 RMK A01 T03120191  RH  049%=      5-min Rain = 0
KLE1 201453Z 17002KT 31/19 A3006 RMK A01 T03130192  RH  049%=      5-min Rain = 0
KLE1 201454Z 14001KT 31/20 A3006 RMK A01 T03130199  RH  051%=      5-min Rain = 0
KLE1 201455Z 15003KT 31/20 A3005 RMK A01 T03130201  RH  052%=      5-min Rain = 0
KLE1 201456Z 18003KT 31/19 A3005 RMK A01 T03130194  RH  049%=      5-min Rain = 0
KLE1 201457Z 20001KT 31/19 A3005 RMK A01 T03120194  RH  050%=      5-min Rain = 0
KLE1 201458Z 18003KT 31/19 A3005 RMK A01 T03110194  RH  050%=      5-min Rain = 0
KLE1 201459Z 17004KT 31/19 A3005 RMK A01 T03110194  RH  050%=      5-min Rain = 0
KLE1 201500Z 18004KT 31/20 A3005 RMK A01 T03110197  RH  051%=      5-min Rain = 0
KLE1 201501Z 18003KT 31/19 A3005 RMK A01 T03120194  RH  050%=      5-min Rain = 0
KLE1 201502Z 16003KT 31/19 A3005 RMK A01 T03110193  RH  049%=      5-min Rain = 0
KLE1 201503Z 16003KT 31/19 A3005 RMK A01 T03100192  RH  050%=      5-min Rain = 0
KLE1 201504Z 15004KT 31/20 A3006 RMK A01 T03090196  RH  051%=      5-min Rain = 0
KLE1 201505Z 15004KT 31/20 A3006 RMK A01 T03100198  RH  051%=      5-min Rain = 0
KLE1 201506Z 14003KT 31/20 A3006 RMK A01 T03110197  RH  051%=      5-min Rain = 0
KLE1 201507Z 14003KT 31/20 A3006 RMK A01 T03120199  RH  051%=      5-min Rain = 0
KLE1 201508Z 15003KT 31/20 A3006 RMK A01 T03120196  RH  050%=      5-min Rain = 0
KLE1 201509Z 13004KT 31/20 A3006 RMK A01 T03120195  RH  050%=      5-min Rain = 0
KLE1 201510Z 11002KT 31/20 A3006 RMK A01 T03120196  RH  050%=      5-min Rain = 0
KLE1 201511Z 13004KT 31/20 A3006 RMK A01 T03120199  RH  051%=      5-min Rain = 0
KLE1 201512Z 13003KT 31/20 A3006 RMK A01 T03130199  RH  051%=      5-min Rain = 0
KLE1 201513Z 12003KT 32/20 A3006 RMK A01 T03150199  RH  050%=      5-min Rain = 0
KLE1 201514Z 13003KT 32/20 A3006 RMK A01 T03170198  RH  049%=      5-min Rain = 0
KLE1 201515Z 13004KT 32/20 A3006 RMK A01 T03180198  RH  049%=      5-min Rain = 0
KLE1 201516Z 14004KT 32/20 A3006 RMK A01 T03190197  RH  048%=      5-min Rain = 0
KLE1 201517Z 12004KT 32/20 A3006 RMK A01 T03180195  RH  048%=      5-min Rain = 0
KLE1 201518Z 10003KT 32/20 A3006 RMK A01 T03160196  RH  049%=      5-min Rain = 0
KLE1 201519Z 12002KT 32/20 A3006 RMK A01 T03160198  RH  050%=      5-min Rain = 0
KLE1 201520Z 14003KT 32/20 A3006 RMK A01 T03180199  RH  050%=      5-min Rain = 0
KLE1 201521Z 14001KT 32/20 A3006 RMK A01 T03200200  RH  049%=      5-min Rain = 0
KLE1 201522Z 22001KT 32/20 A3006 RMK A01 T03220197  RH  048%=      5-min Rain = 0
KLE1 201523Z 24001KT 32/20 A3006 RMK A01 T03220198  RH  048%=      5-min Rain = 0
KLE1 201524Z 24001KT 32/20 A3006 RMK A01 T03210197  RH  048%=      5-min Rain = 0
KLE1 201525Z 28002KT 32/20 A3006 RMK A01 T03210197  RH  048%=      5-min Rain = 0
KLE1 201526Z 29002KT 32/20 A3006 RMK A01 T03200198  RH  048%=      5-min Rain = 0
KLE1 201527Z 25002KT 32/20 A3006 RMK A01 T03220198  RH  048%=      5-min Rain = 0
KLE1 201528Z 28003KT 33/19 A3006 RMK A01 T03250194  RH  046%=      5-min Rain = 0
KLE1 201529Z 28004KT 33/19 A3006 RMK A01 T03260188  RH  044%=      5-min Rain = 0
KLE1 201530Z 28003KT 33/19 A3006 RMK A01 T03260189  RH  044%=      5-min Rain = 0
KLE1 201531Z 30003KT 33/19 A3006 RMK A01 T03270189  RH  044%=      5-min Rain = 0
KLE1 201532Z 31003KT 33/19 A3006 RMK A01 T03270188  RH  044%=      5-min Rain = 0
KLE1 201533Z 30003KT 33/19 A3006 RMK A01 T03270191  RH  045%=      5-min Rain = 0
KLE1 201534Z 25003KT 33/19 A3006 RMK A01 T03280189  RH  044%=      5-min Rain = 0
KLE1 201535Z 24004KT 33/19 A3006 RMK A01 T03290188  RH  043%=      5-min Rain = 0
KLE1 201536Z 26004KT 33/19 A3006 RMK A01 T03300189  RH  044%=      5-min Rain = 0
KLE1 201537Z 24006KT 33/19 A3006 RMK A01 T03300187  RH  043%=      5-min Rain = 0
KLE1 201538Z 24004KT 33/18 A3006 RMK A01 T03300184  RH  042%=      5-min Rain = 0
KLE1 201539Z 26004KT 33/19 A3006 RMK A01 T03300187  RH  043%=      5-min Rain = 0
KLE1 201540Z 26004KT 33/19 A3006 RMK A01 T03320191  RH  043%=      5-min Rain = 0
KLE1 201541Z 27004KT 33/19 A3006 RMK A01 T03340191  RH  043%=      5-min Rain = 0
KLE1 201542Z 28005KT 34/19 A3006 RMK A01 T03350190  RH  043%=      5-min Rain = 0
KLE1 201543Z 26006KT 34/19 A3006 RMK A01 T03350190  RH  042%=      5-min Rain = 0
KLE1 201544Z 26006KT 34/19 A3006 RMK A01 T03360190  RH  042%=      5-min Rain = 0
KLE1 201545Z 26006KT 34/19 A3006 RMK A01 T03380187  RH  041%=      5-min Rain = 0
KLE1 201546Z 26008KT 34/19 A3006 RMK A01 T03400185  RH  040%=      5-min Rain = 0
KLE1 201547Z 26009KT 34/18 A3006 RMK A01 T03410183  RH  039%=      5-min Rain = 0
KLE1 201548Z 25007KT 34/19 A3006 RMK A01 T03400187  RH  040%=      5-min Rain = 0
KLE1 201549Z 25008G13KT 34/19 A3006 RMK A01 T03410189  RH  041%=      5-min Rain = 0
KLE1 201550Z 25011KT 34/18 A3006 RMK A01 T03430180  RH  038%=      5-min Rain = 0
KLE1 201551Z 24009KT 34/18 A3006 RMK A01 T03430179  RH  038%=      5-min Rain = 0
KLE1 201552Z 25008KT 34/18 A3006 RMK A01 T03430175  RH  037%=      5-min Rain = 0
KLE1 201553Z 27008KT 34/18 A3006 RMK A01 T03420183  RH  039%=      5-min Rain = 0
KLE1 201554Z 25010KT 34/18 A3006 RMK A01 T03430180  RH  038%=      5-min Rain = 0
KLE1 201555Z 25010KT 34/18 A3006 RMK A01 T03440178  RH  037%=      5-min Rain = 0
KLE1 201556Z 26008KT 34/18 A3006 RMK A01 T03430178  RH  038%=      5-min Rain = 0
KLE1 201557Z 26010KT 34/18 A3006 RMK A01 T03430180  RH  038%=      5-min Rain = 0
KLE1 201558Z 26010KT 34/18 A3006 RMK A01 T03440180  RH  038%=      5-min Rain = 0
KLE1 201559Z 26010KT 35/18 A3006 RMK A01 T03450181  RH  038%=      5-min Rain = 0
KLE1 201600Z 26009KT 34/18 A3006 RMK A01 T03440178  RH  037%=      5-min Rain = 0
KLE1 201601Z 26009KT 34/18 A3006 RMK A01 T03440181  RH  038%=      5-min Rain = 0
KLE1 201602Z 26010KT 34/18 A3006 RMK A01 T03440178  RH  037%=      5-min Rain = 0
KLE1 201603Z 26008KT 34/18 A3006 RMK A01 T03440179  RH  038%=      5-min Rain = 0
KLE1 201604Z 27005KT 34/18 A3006 RMK A01 T03440183  RH  039%=      5-min Rain = 0
KLE1 201605Z 26008KT 35/18 A3006 RMK A01 T03450181  RH  038%=      5-min Rain = 0
KLE1 201606Z 27011KT 35/18 A3006 RMK A01 T03460182  RH  038%=      5-min Rain = 0
KLE1 201607Z 26008KT 35/18 A3006 RMK A01 T03470180  RH  037%=      5-min Rain = 0
KLE1 201608Z 27007KT 35/18 A3006 RMK A01 T03470179  RH  037%=      5-min Rain = 0
KLE1 201609Z 26005KT 35/18 A3006 RMK A01 T03470180  RH  037%=      5-min Rain = 0
KLE1 201610Z 26007KT 35/18 A3006 RMK A01 T03480184  RH  038%=      5-min Rain = 0
KLE1 201611Z 26009KT 35/18 A3006 RMK A01 T03500181  RH  037%=      5-min Rain = 0
KLE1 201612Z 26009KT 35/18 A3006 RMK A01 T03490179  RH  037%=      5-min Rain = 0
KLE1 201613Z 26008KT 35/18 A3006 RMK A01 T03470182  RH  038%=      5-min Rain = 0
KLE1 201614Z 27007KT 35/19 A3006 RMK A01 T03490186  RH  038%=      5-min Rain = 0
KLE1 201615Z 28008KT 35/19 A3006 RMK A01 T03510188  RH  038%=      5-min Rain = 0
KLE1 201616Z 28008KT 35/18 A3006 RMK A01 T03520181  RH  036%=      5-min Rain = 0
KLE1 201617Z 27008KT 35/18 A3005 RMK A01 T03510181  RH  037%=      5-min Rain = 0
KLE1 201618Z 27008KT 35/18 A3005 RMK A01 T03500184  RH  037%=      5-min Rain = 0
KLE1 201619Z 27009KT 35/18 A3005 RMK A01 T03500182  RH  037%=      5-min Rain = 0
KLE1 201620Z 25007KT 35/18 A3005 RMK A01 T03510182  RH  037%=      5-min Rain = 0
KLE1 201621Z 26008KT 35/18 A3005 RMK A01 T03520183  RH  037%=      5-min Rain = 0
KLE1 201622Z 24008KT 35/18 A3005 RMK A01 T03520179  RH  036%=      5-min Rain = 0
KLE1 201623Z 24007KT 35/18 A3005 RMK A01 T03530183  RH  037%=      5-min Rain = 0
KLE1 201624Z 24009KT 36/18 A3005 RMK A01 T03560183  RH  036%=      5-min Rain = 0
KLE1 201625Z 24010KT 36/18 A3005 RMK A01 T03560178  RH  035%=      5-min Rain = 0
KLE1 201626Z 25007KT 36/18 A3005 RMK A01 T03550179  RH  035%=      5-min Rain = 0
KLE1 201627Z 24007KT 36/18 A3005 RMK A01 T03550180  RH  036%=      5-min Rain = 0
KLE1 201628Z 22008KT 36/18 A3005 RMK A01 T03560181  RH  036%=      5-min Rain = 0
KLE1 201629Z 26008KT 36/18 A3005 RMK A01 T03570183  RH  036%=      5-min Rain = 0
KLE1 201630Z 28006KT 36/18 A3005 RMK A01 T03570178  RH  035%=      5-min Rain = 0
KLE1 201631Z 28006KT 36/18 A3005 RMK A01 T03550183  RH  036%=      5-min Rain = 0
KLE1 201632Z 29007KT 36/18 A3005 RMK A01 T03560179  RH  035%=      5-min Rain = 0
KLE1 201633Z 28007KT 36/18 A3005 RMK A01 T03550182  RH  036%=      5-min Rain = 0
KLE1 201634Z 26008KT 36/18 A3005 RMK A01 T03550184  RH  036%=      5-min Rain = 0
KLE1 201635Z 24010KT 36/18 A3005 RMK A01 T03570178  RH  035%=      5-min Rain = 0
KLE1 201636Z 26009KT 36/18 A3005 RMK A01 T03570177  RH  035%=      5-min Rain = 0
KLE1 201637Z 27008KT 36/18 A3005 RMK A01 T03550176  RH  035%=      5-min Rain = 0
KLE1 201638Z 26008KT 35/18 A3005 RMK A01 T03540181  RH  036%=      5-min Rain = 0
KLE1 201639Z 25008KT 36/18 A3005 RMK A01 T03550181  RH  036%=      5-min Rain = 0
KLE1 201640Z 25008KT 36/18 A3005 RMK A01 T03570178  RH  035%=      5-min Rain = 0
KLE1 201641Z 25006KT 36/18 A3005 RMK A01 T03570177  RH  035%=      5-min Rain = 0
KLE1 201642Z 25009KT 36/18 A3005 RMK A01 T03570183  RH  036%=      5-min Rain = 0
KLE1 201643Z 24007KT 36/18 A3005 RMK A01 T03590176  RH  034%=      5-min Rain = 0
KLE1 201644Z 24004KT 36/18 A3005 RMK A01 T03580176  RH  034%=      5-min Rain = 0
KLE1 201645Z 24009KT 36/18 A3005 RMK A01 T03590183  RH  036%=      5-min Rain = 0
KLE1 201646Z 26005KT 36/18 A3005 RMK A01 T03600175  RH  034%=      5-min Rain = 0
KLE1 201647Z 27005KT 36/18 A3005 RMK A01 T03580176  RH  034%=      5-min Rain = 0
KLE1 201648Z 27005KT 36/18 A3005 RMK A01 T03560177  RH  035%=      5-min Rain = 0
KLE1 201649Z 27006KT 36/18 A3005 RMK A01 T03560178  RH  035%=      5-min Rain = 0
KLE1 201650Z 28004KT 36/18 A3005 RMK A01 T03560176  RH  035%=      5-min Rain = 0
KLE1 201651Z 26006KT 36/18 A3005 RMK A01 T03560178  RH  035%=      5-min Rain = 0
KLE1 201652Z 24006KT 36/18 A3005 RMK A01 T03570177  RH  035%=      5-min Rain = 0
KLE1 201653Z 27005KT 36/18 A3005 RMK A01 T03570176  RH  034%=      5-min Rain = 0
KLE1 201654Z 27006KT 36/18 A3005 RMK A01 T03570180  RH  035%=      5-min Rain = 0
KLE1 201655Z 25007KT 36/18 A3005 RMK A01 T03580181  RH  035%=      5-min Rain = 0
KLE1 201656Z 25005KT 36/18 A3005 RMK A01 T03600179  RH  034%=      5-min Rain = 0
KLE1 201657Z 25005KT 36/18 A3005 RMK A01 T03620181  RH  035%=      5-min Rain = 0
KLE1 201658Z 22004KT 36/18 A3005 RMK A01 T03630178  RH  034%=      5-min Rain = 0
KLE1 201659Z 23007KT 36/18 A3005 RMK A01 T03640178  RH  033%=      5-min Rain = 0
KLE1 201700Z 25009KT 37/18 A3005 RMK A01 T03660179  RH  033%=      5-min Rain = 0
KLE1 201701Z 26007KT 36/17 A3005 RMK A01 T03640174  RH  033%=      5-min Rain = 0
KLE1 201702Z 24006KT 36/17 A3005 RMK A01 T03610172  RH  033%=      5-min Rain = 0
KLE1 201703Z 23006KT 36/17 A3005 RMK A01 T03600174  RH  033%=      5-min Rain = 0
KLE1 201704Z 25009KT 36/18 A3005 RMK A01 T03600175  RH  034%=      5-min Rain = 0
KLE1 201705Z 25009KT 36/17 A3005 RMK A01 T03610174  RH  033%=      5-min Rain = 0
KLE1 201706Z 23009KT 36/18 A3005 RMK A01 T03630178  RH  034%=      5-min Rain = 0
KLE1 201707Z 23009KT 37/17 A3005 RMK A01 T03650173  RH  032%=      5-min Rain = 0
KLE1 201708Z 22007KT 36/17 A3005 RMK A01 T03630171  RH  032%=      5-min Rain = 0
KLE1 201709Z 23006KT 36/17 A3005 RMK A01 T03620174  RH  033%=      5-min Rain = 0
KLE1 201710Z 22008KT 36/17 A3005 RMK A01 T03620173  RH  033%=      5-min Rain = 0
KLE1 201711Z 24007KT 36/18 A3005 RMK A01 T03620175  RH  033%=      5-min Rain = 0
KLE1 201712Z 23006KT 36/17 A3005 RMK A01 T03630170  RH  032%=      5-min Rain = 0
KLE1 201713Z 23005KT 36/17 A3005 RMK A01 T03630172  RH  033%=      5-min Rain = 0
KLE1 201714Z 21004KT 36/17 A3004 RMK A01 T03630169  RH  032%=      5-min Rain = 0
KLE1 201715Z 22005KT 36/17 A3004 RMK A01 T03630170  RH  032%=      5-min Rain = 0
KLE1 201716Z 24004KT 36/17 A3004 RMK A01 T03630171  RH  032%=      5-min Rain = 0
KLE1 201717Z 24007KT 36/17 A3004 RMK A01 T03640174  RH  033%=      5-min Rain = 0
KLE1 201718Z 22005KT 37/17 A3004 RMK A01 T03660173  RH  032%=      5-min Rain = 0
KLE1 201719Z 20007KT 37/17 A3004 RMK A01 T03660173  RH  032%=      5-min Rain = 0
KLE1 201720Z 21008KT 37/17 A3004 RMK A01 T03660173  RH  032%=      5-min Rain = 0
KLE1 201721Z 21007KT 37/17 A3004 RMK A01 T03660173  RH  032%=      5-min Rain = 0
KLE1 201722Z 23006KT 37/18 A3004 RMK A01 T03680178  RH  033%=      5-min Rain = 0
KLE1 201723Z 24005KT 37/17 A3004 RMK A01 T03710171  RH  031%=      5-min Rain = 0
KLE1 201724Z 20003KT 37/17 A3004 RMK A01 T03680169  RH  031%=      5-min Rain = 0
KLE1 201725Z 22004KT 37/17 A3004 RMK A01 T03660168  RH  031%=      5-min Rain = 0
KLE1 201726Z 24008KT 37/17 A3004 RMK A01 T03660174  RH  032%=      5-min Rain = 0
KLE1 201727Z 25007KT 37/17 A3004 RMK A01 T03670170  RH  032%=      5-min Rain = 0
KLE1 201728Z 23005KT 37/17 A3004 RMK A01 T03670172  RH  032%=      5-min Rain = 0
KLE1 201729Z 23006KT 37/17 A3004 RMK A01 T03690173  RH  032%=      5-min Rain = 0
KLE1 201730Z 21004KT 37/17 A3004 RMK A01 T03680170  RH  031%=      5-min Rain = 0
KLE1 201731Z 20003KT 37/17 A3004 RMK A01 T03660168  RH  031%=      5-min Rain = 0
KLE1 201732Z 26007KT 37/17 A3004 RMK A01 T03650172  RH  032%=      5-min Rain = 0
KLE1 201733Z 26004KT 37/17 A3004 RMK A01 T03670171  RH  031%=      5-min Rain = 0
KLE1 201734Z 26004KT 37/17 A3004 RMK A01 T03670174  RH  032%=      5-min Rain = 0
KLE1 201735Z 27006KT 37/17 A3004 RMK A01 T03690174  RH  032%=      5-min Rain = 0
KLE1 201736Z 27009KT 37/18 A3004 RMK A01 T03700177  RH  032%=      5-min Rain = 0
KLE1 201737Z 26011KT 37/18 A3004 RMK A01 T03700175  RH  032%=      5-min Rain = 0
KLE1 201738Z 24008KT 37/17 A3004 RMK A01 T03690172  RH  031%=      5-min Rain = 0
KLE1 201739Z 25006KT 37/17 A3004 RMK A01 T03680173  RH  032%=      5-min Rain = 0
KLE1 201740Z 24003KT 37/17 A3004 RMK A01 T03690174  RH  032%=      5-min Rain = 0
KLE1 201741Z 26004KT 37/18 A3004 RMK A01 T03700175  RH  032%=      5-min Rain = 0
KLE1 201742Z 22002KT 37/17 A3004 RMK A01 T03710172  RH  031%=      5-min Rain = 0
KLE1 201743Z 17005KT 37/17 A3004 RMK A01 T03710172  RH  031%=      5-min Rain = 0
KLE1 201744Z 17007KT 37/17 A3004 RMK A01 T03730174  RH  031%=      5-min Rain = 0
KLE1 201745Z 15005KT 38/17 A3004 RMK A01 T03750168  RH  030%=      5-min Rain = 0
KLE1 201746Z 16004KT 37/17 A3004 RMK A01 T03740170  RH  030%=      5-min Rain = 0
KLE1 201747Z 20006KT 37/17 A3004 RMK A01 T03740174  RH  031%=      5-min Rain = 0
KLE1 201748Z 20007KT 38/17 A3004 RMK A01 T03760168  RH  029%=      5-min Rain = 0
KLE1 201749Z 22005KT 38/17 A3004 RMK A01 T03750165  RH  029%=      5-min Rain = 0
KLE1 201750Z 18004KT 37/17 A3004 RMK A01 T03730168  RH  030%=      5-min Rain = 0
KLE1 201751Z 22006KT 37/17 A3004 RMK A01 T03710167  RH  030%=      5-min Rain = 0
KLE1 201752Z 21006KT 37/17 A3004 RMK A01 T03710170  RH  031%=      5-min Rain = 0
KLE1 201753Z 20005KT 37/17 A3004 RMK A01 T03700171  RH  031%=      5-min Rain = 0
KLE1 201754Z 24003KT 37/17 A3004 RMK A01 T03700172  RH  031%=      5-min Rain = 0
KLE1 201755Z 22002KT 37/18 A3004 RMK A01 T03720176  RH  032%=      5-min Rain = 0
KLE1 201756Z 26004KT 38/18 A3004 RMK A01 T03750175  RH  031%=      5-min Rain = 0
KLE1 201757Z 26003KT 38/17 A3004 RMK A01 T03750167  RH  029%=      5-min Rain = 0
KLE1 201758Z 26004KT 37/17 A3004 RMK A01 T03730170  RH  030%=      5-min Rain = 0
KLE1 201759Z 27005KT 37/18 A3003 RMK A01 T03720175  RH  031%=      5-min Rain = 0
KLE1 201800Z 28004KT 37/17 A3003 RMK A01 T03740172  RH  031%=      5-min Rain = 0
KLE1 201801Z 29006KT 37/17 A3003 RMK A01 T03740172  RH  030%=      5-min Rain = 0
KLE1 201802Z 28005KT 37/17 A3003 RMK A01 T03730172  RH  031%=      5-min Rain = 0
KLE1 201803Z 28002KT 37/17 A3003 RMK A01 T03730171  RH  031%=      5-min Rain = 0
KLE1 201804Z 19002KT 37/17 A3004 RMK A01 T03730172  RH  031%=      5-min Rain = 0
KLE1 201805Z 14003KT 37/17 A3003 RMK A01 T03740167  RH  030%=      5-min Rain = 0
KLE1 201806Z 22001KT 38/17 A3003 RMK A01 T03760166  RH  029%=      5-min Rain = 0
KLE1 201807Z 25005KT 38/17 A3003 RMK A01 T03760169  RH  030%=      5-min Rain = 0
KLE1 201808Z 22005KT 38/17 A3004 RMK A01 T03760170  RH  030%=      5-min Rain = 0
KLE1 201809Z 21006KT 38/17 A3004 RMK A01 T03760165  RH  029%=      5-min Rain = 0
KLE1 201810Z 21007KT 38/16 A3003 RMK A01 T03760164  RH  029%=      5-min Rain = 0
KLE1 201811Z 22007KT 38/16 A3003 RMK A01 T03760161  RH  028%=      5-min Rain = 0
KLE1 201812Z 23006KT 38/17 A3003 RMK A01 T03750167  RH  030%=      5-min Rain = 0
KLE1 201813Z 17009KT 38/17 A3003 RMK A01 T03750171  RH  030%=      5-min Rain = 0
KLE1 201814Z 15009KT 38/17 A3003 RMK A01 T03780166  RH  029%=      5-min Rain = 0
KLE1 201815Z 14007KT 38/17 A3003 RMK A01 T03770166  RH  029%=      5-min Rain = 0
KLE1 201816Z 15008KT 38/17 A3003 RMK A01 T03770167  RH  029%=      5-min Rain = 0
KLE1 201817Z 14009KT 38/17 A3003 RMK A01 T03770170  RH  030%=      5-min Rain = 0
KLE1 201818Z 15008KT 38/17 A3003 RMK A01 T03780170  RH  030%=      5-min Rain = 0
KLE1 201819Z 13009KT 38/18 A3003 RMK A01 T03780176  RH  031%=      5-min Rain = 0
KLE1 201820Z 13009KT 38/17 A3003 RMK A01 T03780170  RH  030%=      5-min Rain = 0
KLE1 201821Z 13008KT 38/18 A3003 RMK A01 T03770176  RH  031%=      5-min Rain = 0
KLE1 201822Z 13008KT 38/17 A3003 RMK A01 T03770174  RH  030%=      5-min Rain = 0
KLE1 201823Z 14008KT 38/18 A3003 RMK A01 T03780175  RH  031%=      5-min Rain = 0
KLE1 201824Z 15007KT 38/17 A3003 RMK A01 T03780173  RH  030%=      5-min Rain = 0
KLE1 201825Z 15007KT 38/18 A3003 RMK A01 T03780175  RH  030%=      5-min Rain = 0
KLE1 201826Z 13007KT 38/18 A3003 RMK A01 T03780176  RH  031%=      5-min Rain = 0
KLE1 201827Z 18010G16KT 38/18 A3003 RMK A01 T03790178  RH  031%=      5-min Rain = 0
KLE1 201828Z 18009KT 38/18 A3003 RMK A01 T03790177  RH  031%=      5-min Rain = 0
KLE1 201829Z 16011KT 38/18 A3003 RMK A01 T03820175  RH  030%=      5-min Rain = 0
KLE1 201830Z 16011KT 38/17 A3003 RMK A01 T03820171  RH  029%=      5-min Rain = 0
KLE1 201831Z 16008KT 38/17 A3003 RMK A01 T03820174  RH  030%=      5-min Rain = 0
KLE1 201832Z 15008KT 38/17 A3003 RMK A01 T03820172  RH  029%=      5-min Rain = 0
KLE1 201833Z 15007KT 38/17 A3003 RMK A01 T03810172  RH  029%=      5-min Rain = 0
KLE1 201834Z 16010KT 38/18 A3003 RMK A01 T03800176  RH  030%=      5-min Rain = 0
KLE1 201835Z 16013KT 38/17 A3003 RMK A01 T03810173  RH  030%=      5-min Rain = 0
KLE1 201836Z 15007G12KT 38/17 A3003 RMK A01 T03790167  RH  029%=      5-min Rain = 0
KLE1 201837Z 15007KT 38/17 A3003 RMK A01 T03770172  RH  030%=      5-min Rain = 0
KLE1 201838Z 14009KT 38/17 A3002 RMK A01 T03770173  RH  030%=      5-min Rain = 0
KLE1 201839Z 15008KT 38/17 A3002 RMK A01 T03790173  RH  030%=      5-min Rain = 0
KLE1 201840Z 14007KT 38/17 A3002 RMK A01 T03800172  RH  030%=      5-min Rain = 0
KLE1 201841Z 13006KT 38/17 A3002 RMK A01 T03790171  RH  029%=      5-min Rain = 0
KLE1 201842Z 12006KT 38/17 A3002 RMK A01 T03770167  RH  029%=      5-min Rain = 0
KLE1 201843Z 11006KT 38/17 A3002 RMK A01 T03760173  RH  030%=      5-min Rain = 0
KLE1 201844Z 13003KT 38/17 A3002 RMK A01 T03770172  RH  030%=      5-min Rain = 0
KLE1 201845Z 09006KT 38/18 A3002 RMK A01 T03780178  RH  031%=      5-min Rain = 0
KLE1 201846Z 12007KT 38/18 A3002 RMK A01 T03810178  RH  031%=      5-min Rain = 0
KLE1 201847Z 11007KT 38/18 A3002 RMK A01 T03810177  RH  030%=      5-min Rain = 0
KLE1 201848Z 09008KT 38/18 A3002 RMK A01 T03810179  RH  031%=      5-min Rain = 0
KLE1 201849Z 10009KT 38/18 A3002 RMK A01 T03830180  RH  031%=      5-min Rain = 0
KLE1 201850Z 12008KT 38/18 A3002 RMK A01 T03830179  RH  030%=      5-min Rain = 0
KLE1 201851Z 14008KT 38/17 A3002 RMK A01 T03800173  RH  030%=      5-min Rain = 0
KLE1 201852Z 11007KT 38/18 A3002 RMK A01 T03780179  RH  031%=      5-min Rain = 0
KLE1 201853Z 10008KT 38/18 A3002 RMK A01 T03800179  RH  031%=      5-min Rain = 0
KLE1 201854Z 09008KT 38/18 A3002 RMK A01 T03830176  RH  030%=      5-min Rain = 0
KLE1 201855Z 10009KT 38/18 A3002 RMK A01 T03810175  RH  030%=      5-min Rain = 0
KLE1 201856Z 10008KT 38/17 A3002 RMK A01 T03790174  RH  030%=      5-min Rain = 0
KLE1 201857Z 09006KT 38/18 A3002 RMK A01 T03790177  RH  031%=      5-min Rain = 0
KLE1 201858Z 09005KT 38/18 A3002 RMK A01 T03810176  RH  030%=      5-min Rain = 0
KLE1 201859Z 12006KT 38/17 A3002 RMK A01 T03810172  RH  030%=      5-min Rain = 0
KLE1 201900Z 11007KT 38/17 A3002 RMK A01 T03800174  RH  030%=      5-min Rain = 0
KLE1 201901Z 10007KT 38/17 A3002 RMK A01 T03790173  RH  030%=      5-min Rain = 0
KLE1 201902Z 12006KT 38/18 A3002 RMK A01 T03780175  RH  030%=      5-min Rain = 0
KLE1 201903Z 13008KT 38/18 A3002 RMK A01 T03800178  RH  031%=      5-min Rain = 0
KLE1 201904Z 14012KT 38/18 A3002 RMK A01 T03840178  RH  030%=      5-min Rain = 0
KLE1 201905Z 15013KT 39/17 A3002 RMK A01 T03860173  RH  029%=      5-min Rain = 0
KLE1 201906Z 16011KT 39/17 A3002 RMK A01 T03870169  RH  028%=      5-min Rain = 0
KLE1 201907Z 15012KT 39/17 A3002 RMK A01 T03870170  RH  028%=      5-min Rain = 0
KLE1 201908Z 16012KT 39/16 A3002 RMK A01 T03870163  RH  027%=      5-min Rain = 0
KLE1 201909Z 16011KT 39/16 A3002 RMK A01 T03850159  RH  027%=      5-min Rain = 0
KLE1 201910Z 17012KT 38/16 A3002 RMK A01 T03840164  RH  028%=      5-min Rain = 0
KLE1 201911Z 16009KT 38/16 A3002 RMK A01 T03840163  RH  027%=      5-min Rain = 0
KLE1 201912Z 14007KT 38/17 A3001 RMK A01 T03830166  RH  028%=      5-min Rain = 0
KLE1 201913Z 14006KT 38/17 A3001 RMK A01 T03830165  RH  028%=      5-min Rain = 0
KLE1 201914Z 15008KT 38/17 A3001 RMK A01 T03830168  RH  028%=      5-min Rain = 0
KLE1 201915Z 16012KT 39/17 A3001 RMK A01 T03850171  RH  029%=      5-min Rain = 0
KLE1 201916Z 16015KT 39/17 A3001 RMK A01 T03880171  RH  028%=      5-min Rain = 0
KLE1 201917Z 16015KT 39/17 A3001 RMK A01 T03890165  RH  027%=      5-min Rain = 0
KLE1 201918Z 16012KT 39/16 A3001 RMK A01 T03880161  RH  026%=      5-min Rain = 0
KLE1 201919Z 14012KT 39/17 A3001 RMK A01 T03880168  RH  028%=      5-min Rain = 0
KLE1 201920Z 14012KT 39/17 A3001 RMK A01 T03870166  RH  027%=      5-min Rain = 0
KLE1 201921Z 16010KT 39/17 A3001 RMK A01 T03860165  RH  027%=      5-min Rain = 0
KLE1 201922Z 17010KT 39/17 A3001 RMK A01 T03860166  RH  028%=      5-min Rain = 0
KLE1 201923Z 16014G21KT 39/17 A3001 RMK A01 T03880166  RH  027%=      5-min Rain = 0
KLE1 201924Z 16012G18KT 39/16 A3001 RMK A01 T03860161  RH  027%=      5-min Rain = 0
KLE1 201925Z 15016KT 38/17 A3001 RMK A01 T03840165  RH  028%=      5-min Rain = 0
KLE1 201926Z 15017KT 38/17 A3001 RMK A01 T03830165  RH  028%=      5-min Rain = 0
KLE1 201927Z 15014KT 38/16 A3001 RMK A01 T03830162  RH  027%=      5-min Rain = 0
KLE1 201928Z 15013KT 38/16 A3001 RMK A01 T03840163  RH  027%=      5-min Rain = 0
KLE1 201929Z 14013KT 38/16 A3001 RMK A01 T03840163  RH  027%=      5-min Rain = 0
KLE1 201930Z 14010KT 38/16 A3001 RMK A01 T03830163  RH  027%=      5-min Rain = 0
KLE1 201931Z 16011G17KT 38/17 A3001 RMK A01 T03820165  RH  028%=      5-min Rain = 0
KLE1 201932Z 15014KT 38/17 A3001 RMK A01 T03820169  RH  029%=      5-min Rain = 0
KLE1 201933Z 15014KT 39/17 A3001 RMK A01 T03850167  RH  028%=      5-min Rain = 0
KLE1 201934Z 15013KT 39/16 A3001 RMK A01 T03850163  RH  027%=      5-min Rain = 0
KLE1 201935Z 14011KT 38/17 A3001 RMK A01 T03830165  RH  028%=      5-min Rain = 0
KLE1 201936Z 14013KT 39/17 A3001 RMK A01 T03850170  RH  028%=      5-min Rain = 0
KLE1 201937Z 15012KT 39/17 A3001 RMK A01 T03870168  RH  028%=      5-min Rain = 0
KLE1 201938Z 14012KT 39/17 A3001 RMK A01 T03870169  RH  028%=      5-min Rain = 0
KLE1 201939Z 13013KT 39/17 A3001 RMK A01 T03870167  RH  028%=      5-min Rain = 0
KLE1 201940Z 13013KT 39/17 A3001 RMK A01 T03860166  RH  027%=      5-min Rain = 0
KLE1 201941Z 14013KT 39/16 A3001 RMK A01 T03860161  RH  027%=      5-min Rain = 0
KLE1 201942Z 14012KT 39/16 A3001 RMK A01 T03850163  RH  027%=      5-min Rain = 0
KLE1 201943Z 15013KT 38/16 A3001 RMK A01 T03840161  RH  027%=      5-min Rain = 0
KLE1 201944Z 14010KT 38/16 A3001 RMK A01 T03840159  RH  027%=      5-min Rain = 0
KLE1 201945Z 14010KT 38/16 A3001 RMK A01 T03830160  RH  027%=      5-min Rain = 0
KLE1 201946Z 12008KT 38/16 A3001 RMK A01 T03830158  RH  027%=      5-min Rain = 0
KLE1 201947Z 13010KT 38/16 A3001 RMK A01 T03830160  RH  027%=      5-min Rain = 0
KLE1 201948Z 13011KT 38/16 A3001 RMK A01 T03840164  RH  028%=      5-min Rain = 0
KLE1 201949Z 14010KT 39/16 A3001 RMK A01 T03860163  RH  027%=      5-min Rain = 0
KLE1 201950Z 15009KT 39/16 A3001 RMK A01 T03890164  RH  027%=      5-min Rain = 0
KLE1 201951Z 15013KT 39/16 A3001 RMK A01 T03890164  RH  027%=      5-min Rain = 0
KLE1 201952Z 15012KT 39/16 A3001 RMK A01 T03870163  RH  027%=      5-min Rain = 0
KLE1 201953Z 15014KT 39/16 A3001 RMK A01 T03860162  RH  027%=      5-min Rain = 0
KLE1 201954Z 15009KT 39/16 A3001 RMK A01 T03850163  RH  027%=      5-min Rain = 0
KLE1 201955Z 16010KT 39/17 A3001 RMK A01 T03860166  RH  028%=      5-min Rain = 0
KLE1 201956Z 16011KT 39/17 A3001 RMK A01 T03860165  RH  027%=      5-min Rain = 0
KLE1 201957Z 17011KT 39/17 A3001 RMK A01 T03880167  RH  027%=      5-min Rain = 0
KLE1 201958Z 19011KT 39/17 A3001 RMK A01 T03890165  RH  027%=      5-min Rain = 0
KLE1 201959Z 18009KT 39/16 A3001 RMK A01 T03870161  RH  027%=      5-min Rain = 0
KLE1 202000Z 17007KT 39/16 A3001 RMK A01 T03850164  RH  027%=      5-min Rain = 0
KLE1 202001Z 18007KT 39/16 A30 RMK A01 T03860164  RH  027%=      5-min Rain = 0
KLE1 202002Z 16006KT 39/16 A30 RMK A01 T03850162  RH  027%=      5-min Rain = 0
KLE1 202003Z 17012KT 39/17 A30 RMK A01 T03860169  RH  028%=      5-min Rain = 0
KLE1 202004Z 17011KT 39/16 A30 RMK A01 T03880163  RH  027%=      5-min Rain = 0
KLE1 202005Z 16009KT 39/16 A30 RMK A01 T03880163  RH  027%=      5-min Rain = 0
KLE1 202006Z 15008KT 39/16 A30 RMK A01 T03870161  RH  026%=      5-min Rain = 0
KLE1 202007Z 15009KT 39/17 A30 RMK A01 T03870167  RH  028%=      5-min Rain = 0
KLE1 202008Z 15011KT 39/16 A30 RMK A01 T03890163  RH  027%=      5-min Rain = 0
KLE1 202009Z 15011KT 39/16 A30 RMK A01 T03890160  RH  026%=      5-min Rain = 0
KLE1 202010Z 15010KT 39/17 A30 RMK A01 T03880165  RH  027%=      5-min Rain = 0
KLE1 202011Z 16009KT 39/16 A30 RMK A01 T03880164  RH  027%=      5-min Rain = 0
KLE1 202012Z 15009KT 39/16 A30 RMK A01 T03880162  RH  027%=      5-min Rain = 0
KLE1 202013Z 16009KT 39/16 A30 RMK A01 T03880163  RH  027%=      5-min Rain = 0
KLE1 202014Z 18012KT 39/16 A30 RMK A01 T03890161  RH  026%=      5-min Rain = 0
KLE1 202015Z 16009KT 39/16 A30 RMK A01 T03910162  RH  026%=      5-min Rain = 0
KLE1 202016Z 14008KT 39/16 A30 RMK A01 T03920162  RH  026%=      5-min Rain = 0
KLE1 202017Z 17007KT 39/16 A30 RMK A01 T03920159  RH  026%=      5-min Rain = 0
KLE1 202018Z 18008KT 39/16 A30 RMK A01 T03910157  RH  025%=      5-min Rain = 0
KLE1 202019Z 18006KT 39/16 A2999 RMK A01 T03880157  RH  026%=      5-min Rain = 0
KLE1 202020Z 19008KT 39/16 A2999 RMK A01 T03870159  RH  026%=      5-min Rain = 0
KLE1 202021Z 18006KT 39/16 A2999 RMK A01 T03870160  RH  026%=      5-min Rain = 0
KLE1 202022Z 17004KT 39/16 A2999 RMK A01 T03870156  RH  026%=      5-min Rain = 0
KLE1 202023Z 16004KT 39/16 A2999 RMK A01 T03860158  RH  026%=      5-min Rain = 0
KLE1 202024Z 15009KT 39/17 A2999 RMK A01 T03860165  RH  027%=      5-min Rain = 0
KLE1 202025Z 14009KT 39/17 A2999 RMK A01 T03890169  RH  028%=      5-min Rain = 0
KLE1 202026Z 13010KT 39/17 A2999 RMK A01 T03910165  RH  027%=      5-min Rain = 0
KLE1 202027Z 14009KT 39/16 A2999 RMK A01 T03910164  RH  026%=      5-min Rain = 0
KLE1 202028Z 14008KT 39/16 A2999 RMK A01 T03910159  RH  026%=      5-min Rain = 0
KLE1 202029Z 12009KT 39/16 A2999 RMK A01 T03910162  RH  026%=      5-min Rain = 0
KLE1 202030Z 13010KT 39/16 A2999 RMK A01 T03910162  RH  026%=      5-min Rain = 0
KLE1 202031Z 13009KT 39/16 A2999 RMK A01 T03910157  RH  025%=      5-min Rain = 0
KLE1 202032Z 13010KT 39/16 A2999 RMK A01 T03900162  RH  026%=      5-min Rain = 0
KLE1 202033Z 16010KT 39/16 A2999 RMK A01 T03900162  RH  026%=      5-min Rain = 0
KLE1 202034Z 17009KT 39/17 A2999 RMK A01 T03910165  RH  027%=      5-min Rain = 0
KLE1 202035Z 18010KT 39/17 A2999 RMK A01 T03920165  RH  027%=      5-min Rain = 0
KLE1 202036Z 18009KT 39/17 A2999 RMK A01 T03940165  RH  026%=      5-min Rain = 0
KLE1 202037Z 16007KT 40/16 A2999 RMK A01 T03950162  RH  026%=      5-min Rain = 0
KLE1 202038Z 14007KT 39/16 A2999 RMK A01 T03930159  RH  025%=      5-min Rain = 0
KLE1 202039Z 13003KT 39/15 A2999 RMK A01 T03900152  RH  025%=      5-min Rain = 0
KLE1 202040Z 12003KT 39/16 A2998 RMK A01 T03870159  RH  026%=      5-min Rain = 0
KLE1 202041Z 12002KT 39/15 A2998 RMK A01 T03890154  RH  025%=      5-min Rain = 0
KLE1 202042Z 14005KT 39/15 A2998 RMK A01 T03890153  RH  025%=      5-min Rain = 0
KLE1 202043Z 14006KT 39/16 A2998 RMK A01 T03890160  RH  026%=      5-min Rain = 0
KLE1 202044Z 13006KT 39/16 A2998 RMK A01 T03890156  RH  025%=      5-min Rain = 0
KLE1 202045Z 16010KT 39/16 A2998 RMK A01 T03910162  RH  026%=      5-min Rain = 0
KLE1 202046Z 15008KT 39/15 A2998 RMK A01 T03930154  RH  025%=      5-min Rain = 0
KLE1 202047Z 16011KT 39/16 A2998 RMK A01 T03920155  RH  025%=      5-min Rain = 0
KLE1 202048Z 16011KT 39/16 A2998 RMK A01 T03910156  RH  025%=      5-min Rain = 0
KLE1 202049Z 15009KT 39/16 A2998 RMK A01 T03900156  RH  025%=      5-min Rain = 0
KLE1 202050Z 14009KT 39/15 A2998 RMK A01 T03900153  RH  025%=      5-min Rain = 0
KLE1 202051Z 14008KT 39/16 A2998 RMK A01 T03880158  RH  026%=      5-min Rain = 0
KLE1 202052Z 14008KT 39/16 A2998 RMK A01 T03890157  RH  026%=      5-min Rain = 0
KLE1 202053Z 14007KT 39/16 A2998 RMK A01 T03900156  RH  025%=      5-min Rain = 0
KLE1 202054Z 15005KT 39/16 A2998 RMK A01 T03890157  RH  026%=      5-min Rain = 0
KLE1 202055Z 17004KT 39/16 A2998 RMK A01 T03880156  RH  026%=      5-min Rain = 0
KLE1 202056Z 14007KT 39/16 A2998 RMK A01 T03890156  RH  026%=      5-min Rain = 0
KLE1 202057Z 16006KT 39/16 A2998 RMK A01 T03900158  RH  026%=      5-min Rain = 0
KLE1 202058Z 12005KT 39/16 A2998 RMK A01 T03900157  RH  026%=      5-min Rain = 0
KLE1 202059Z 12007KT 39/16 A2998 RMK A01 T03910159  RH  026%=      5-min Rain = 0
KLE1 202100Z 13007KT 39/15 A2997 RMK A01 T03910153  RH  025%=      5-min Rain = 0
KLE1 202101Z 14005KT 39/15 A2997 RMK A01 T03870152  RH  025%=      5-min Rain = 0
KLE1 202102Z 11005KT 39/16 A2997 RMK A01 T03870160  RH  026%=      5-min Rain = 0
KLE1 202103Z 12005KT 39/16 A2997 RMK A01 T03900157  RH  025%=      5-min Rain = 0
KLE1 202104Z 12003KT 39/15 A2997 RMK A01 T03890151  RH  025%=      5-min Rain = 0
KLE1 202105Z 11005KT 39/16 A2997 RMK A01 T03870158  RH  026%=      5-min Rain = 0
KLE1 202106Z 15008G13KT 39/16 A2997 RMK A01 T03890161  RH  026%=      5-min Rain = 0
KLE1 202107Z 17011KT 39/16 A2997 RMK A01 T03920158  RH  025%=      5-min Rain = 0
KLE1 202108Z 15007KT 39/16 A2997 RMK A01 T03930161  RH  026%=      5-min Rain = 0
KLE1 202109Z 14007KT 39/16 A2997 RMK A01 T03940161  RH  026%=      5-min Rain = 0
KLE1 202110Z 18006KT 40/16 A2997 RMK A01 T03950159  RH  025%=      5-min Rain = 0
KLE1 202111Z 17007KT 39/15 A2997 RMK A01 T03940152  RH  024%=      5-min Rain = 0
KLE1 202112Z 16008KT 39/16 A2997 RMK A01 T03930157  RH  025%=      5-min Rain = 0
KLE1 202113Z 15007KT 39/16 A2997 RMK A01 T03940156  RH  025%=      5-min Rain = 0
KLE1 202114Z 13010KT 39/16 A2997 RMK A01 T03940156  RH  025%=      5-min Rain = 0
KLE1 202115Z 13010KT 39/16 A2997 RMK A01 T03940156  RH  025%=      5-min Rain = 0
KLE1 202116Z 13009KT 39/16 A2997 RMK A01 T03920160  RH  026%=      5-min Rain = 0
KLE1 202117Z 14009KT 39/16 A2997 RMK A01 T03930162  RH  026%=      5-min Rain = 0
KLE1 202118Z 14009KT 39/16 A2997 RMK A01 T03920164  RH  026%=      5-min Rain = 0
KLE1 202119Z 16009KT 39/16 A2997 RMK A01 T03940158  RH  025%=      5-min Rain = 0
KLE1 202120Z 19009KT 39/15 A2997 RMK A01 T03930149  RH  024%=      5-min Rain = 0
KLE1 202121Z 19009KT 39/15 A2997 RMK A01 T03930145  RH  023%=      5-min Rain = 0
KLE1 202122Z 18009KT 39/15 A2997 RMK A01 T03920147  RH  024%=      5-min Rain = 0
KLE1 202123Z 17012KT 39/15 A2997 RMK A01 T03920149  RH  024%=      5-min Rain = 0
KLE1 202124Z 16013KT 39/15 A2997 RMK A01 T03940149  RH  024%=      5-min Rain = 0
KLE1 202125Z 15008KT 39/15 A2997 RMK A01 T03920145  RH  023%=      5-min Rain = 0
KLE1 202126Z 14006KT 39/15 A2996 RMK A01 T03900149  RH  024%=      5-min Rain = 0
KLE1 202127Z 16008KT 39/15 A2996 RMK A01 T03910151  RH  024%=      5-min Rain = 0
KLE1 202128Z 16008KT 39/15 A2996 RMK A01 T03930148  RH  024%=      5-min Rain = 0
KLE1 202129Z 15005KT 39/15 A2996 RMK A01 T03930147  RH  024%=      5-min Rain = 0
KLE1 202130Z 16006KT 39/15 A2996 RMK A01 T03930147  RH  024%=      5-min Rain = 0
KLE1 202131Z 13008KT 39/14 A2996 RMK A01 T03930144  RH  023%=      5-min Rain = 0
KLE1 202132Z 12007KT 39/14 A2996 RMK A01 T03940140  RH  022%=      5-min Rain = 0
KLE1 202133Z 12005KT 39/14 A2996 RMK A01 T03930136  RH  022%=      5-min Rain = 0
KLE1 202134Z 13005KT 39/14 A2996 RMK A01 T03900142  RH  023%=      5-min Rain = 0
KLE1 202135Z 16007KT 39/15 A2996 RMK A01 T03900145  RH  024%=      5-min Rain = 0
KLE1 202136Z 17007KT 39/15 A2996 RMK A01 T03930146  RH  023%=      5-min Rain = 0
KLE1 202137Z 17007KT 40/15 A2996 RMK A01 T03950153  RH  024%=      5-min Rain = 0
KLE1 202138Z 15008KT 40/15 A2996 RMK A01 T03950151  RH  024%=      5-min Rain = 0
KLE1 202139Z 15007KT 39/15 A2996 RMK A01 T03930151  RH  024%=      5-min Rain = 0
KLE1 202140Z 12005KT 39/15 A2996 RMK A01 T03920154  RH  025%=      5-min Rain = 0
KLE1 202141Z 13005KT 39/15 A2996 RMK A01 T03920150  RH  024%=      5-min Rain = 0
KLE1 202142Z 14006KT 39/15 A2996 RMK A01 T03910153  RH  025%=      5-min Rain = 0
KLE1 202143Z 15009KT 39/15 A2996 RMK A01 T03920151  RH  024%=      5-min Rain = 0
KLE1 202144Z 16009KT 39/16 A2996 RMK A01 T03920155  RH  025%=      5-min Rain = 0
KLE1 202145Z 17010KT 39/16 A2996 RMK A01 T03940156  RH  025%=      5-min Rain = 0
KLE1 202146Z 17012KT 40/15 A2996 RMK A01 T03960154  RH  024%=      5-min Rain = 0
KLE1 202147Z 15010KT 40/15 A2996 RMK A01 T03960153  RH  024%=      5-min Rain = 0
KLE1 202148Z 15011KT 40/15 A2996 RMK A01 T03950154  RH  024%=      5-min Rain = 0
KLE1 202149Z 15011KT 39/16 A2996 RMK A01 T03940160  RH  026%=      5-min Rain = 0
KLE1 202150Z 17011KT 40/16 A2996 RMK A01 T03950158  RH  025%=      5-min Rain = 0
KLE1 202151Z 16012KT 40/15 A2996 RMK A01 T03970149  RH  023%=      5-min Rain = 0
KLE1 202152Z 15012KT 40/15 A2996 RMK A01 T03950148  RH  023%=      5-min Rain = 0
KLE1 202153Z 15008KT 39/15 A2996 RMK A01 T03930148  RH  024%=      5-min Rain = 0
KLE1 202154Z 15006KT 39/15 A2996 RMK A01 T03920145  RH  023%=      5-min Rain = 0
KLE1 202155Z 14009KT 39/15 A2996 RMK A01 T03920152  RH  024%=      5-min Rain = 0
KLE1 202156Z 13010KT 39/14 A2995 RMK A01 T03920144  RH  023%=      5-min Rain = 0
KLE1 202157Z 13007KT 39/15 A2995 RMK A01 T03910147  RH  024%=      5-min Rain = 0
KLE1 202158Z 13007KT 39/15 A2995 RMK A01 T03910149  RH  024%=      5-min Rain = 0
KLE1 202159Z 14006KT 39/14 A2995 RMK A01 T03920141  RH  023%=      5-min Rain = 0
KLE1 202200Z 14009KT 39/15 A2995 RMK A01 T03920152  RH  024%=      5-min Rain = 0
KLE1 202201Z 14009KT 39/15 A2995 RMK A01 T03940149  RH  024%=      5-min Rain = 0
KLE1 202202Z 14007KT 40/14 A2995 RMK A01 T03950144  RH  023%=      5-min Rain = 0
KLE1 202203Z 15006KT 39/15 A2995 RMK A01 T03940145  RH  023%=      5-min Rain = 0
KLE1 202204Z 16006KT 39/14 A2995 RMK A01 T03930143  RH  023%=      5-min Rain = 0
KLE1 202205Z 16006KT 39/15 A2995 RMK A01 T03930147  RH  023%=      5-min Rain = 0
KLE1 202206Z 17008KT 39/15 A2995 RMK A01 T03940151  RH  024%=      5-min Rain = 0
KLE1 202207Z 18008KT 40/15 A2995 RMK A01 T03950149  RH  024%=      5-min Rain = 0
KLE1 202208Z 19009KT 39/15 A2995 RMK A01 T03940150  RH  024%=      5-min Rain = 0
KLE1 202209Z 18008KT 39/15 A2995 RMK A01 T03930149  RH  024%=      5-min Rain = 0
KLE1 202210Z 18009KT 39/15 A2995 RMK A01 T03920151  RH  024%=      5-min Rain = 0
KLE1 202211Z 18008KT 39/15 A2995 RMK A01 T03930153  RH  025%=      5-min Rain = 0
KLE1 202212Z 18009KT 39/15 A2995 RMK A01 T03940147  RH  023%=      5-min Rain = 0
KLE1 202213Z 17008KT 39/15 A2995 RMK A01 T03940148  RH  024%=      5-min Rain = 0
KLE1 202214Z 17008KT 39/15 A2995 RMK A01 T03930149  RH  024%=      5-min Rain = 0
KLE1 202215Z 16009KT 39/15 A2995 RMK A01 T03920150  RH  024%=      5-min Rain = 0
KLE1 202216Z 15009KT 39/16 A2995 RMK A01 T03910159  RH  026%=      5-min Rain = 0
KLE1 202217Z 13010KT 39/17 A2995 RMK A01 T03910167  RH  027%=      5-min Rain = 0
KLE1 202218Z 13009KT 39/17 A2995 RMK A01 T03890166  RH  027%=      5-min Rain = 0
KLE1 202219Z 13011KT 39/17 A2995 RMK A01 T03890165  RH  027%=      5-min Rain = 0
KLE1 202220Z 14012KT 39/16 A2995 RMK A01 T03880163  RH  027%=      5-min Rain = 0
KLE1 202221Z 14011KT 39/17 A2995 RMK A01 T03890166  RH  027%=      5-min Rain = 0
KLE1 202222Z 15010KT 39/17 A2995 RMK A01 T03900165  RH  027%=      5-min Rain = 0
KLE1 202223Z 13011KT 39/16 A2995 RMK A01 T03910162  RH  026%=      5-min Rain = 0
KLE1 202224Z 13011KT 39/16 A2995 RMK A01 T03920161  RH  026%=      5-min Rain = 0
KLE1 202225Z 12012KT 39/16 A2995 RMK A01 T03900161  RH  026%=      5-min Rain = 0
KLE1 202226Z 13012KT 39/17 A2995 RMK A01 T03880165  RH  027%=      5-min Rain = 0
KLE1 202227Z 13011KT 39/17 A2995 RMK A01 T03850169  RH  028%=      5-min Rain = 0
KLE1 202228Z 13013KT 38/16 A2995 RMK A01 T03830164  RH  028%=      5-min Rain = 0
KLE1 202229Z 13012KT 38/17 A2995 RMK A01 T03820166  RH  028%=      5-min Rain = 0
KLE1 202230Z 13011KT 38/17 A2995 RMK A01 T03820173  RH  030%=      5-min Rain = 0
KLE1 202231Z 15012KT 38/17 A2995 RMK A01 T03820172  RH  029%=      5-min Rain = 0
KLE1 202232Z 15013KT 38/17 A2995 RMK A01 T03820167  RH  028%=      5-min Rain = 0
KLE1 202233Z 15014KT 38/16 A2995 RMK A01 T03820162  RH  028%=      5-min Rain = 0
KLE1 202234Z 15015KT 38/16 A2995 RMK A01 T03790162  RH  028%=      5-min Rain = 0
KLE1 202235Z 14014KT 38/16 A2995 RMK A01 T03770161  RH  028%=      5-min Rain = 0
KLE1 202236Z 14013KT 38/16 A2995 RMK A01 T03750157  RH  027%=      5-min Rain = 0
KLE1 202237Z 15011KT 37/16 A2995 RMK A01 T03740156  RH  028%=      5-min Rain = 0
KLE1 202238Z 14009KT 37/15 A2995 RMK A01 T03740154  RH  027%=      5-min Rain = 0
KLE1 202239Z 14010KT 37/16 A2995 RMK A01 T03730158  RH  028%=      5-min Rain = 0
KLE1 202240Z 14008KT 37/16 A2995 RMK A01 T03730163  RH  029%=      5-min Rain = 0
KLE1 202241Z 14010KT 37/17 A2995 RMK A01 T03710166  RH  030%=      5-min Rain = 0
KLE1 202242Z 13011KT 37/16 A2995 RMK A01 T03710163  RH  029%=      5-min Rain = 0
KLE1 202243Z 13011KT 37/16 A2995 RMK A01 T03700159  RH  029%=      5-min Rain = 0
KLE1 202244Z 14009KT 37/16 A2995 RMK A01 T03700158  RH  029%=      5-min Rain = 0
KLE1 202245Z 14008KT 37/16 A2995 RMK A01 T03690157  RH  028%=      5-min Rain = 0
KLE1 202246Z 14012KT 37/16 A2995 RMK A01 T03690158  RH  029%=      5-min Rain = 0
KLE1 202247Z 14012KT 37/16 A2995 RMK A01 T03690155  RH  028%=      5-min Rain = 0
KLE1 202248Z 15012KT 37/15 A2995 RMK A01 T03690153  RH  028%=      5-min Rain = 0
KLE1 202249Z 14011KT 37/16 A2995 RMK A01 T03690156  RH  028%=      5-min Rain = 0
KLE1 202250Z 15009KT 37/16 A2995 RMK A01 T03690155  RH  028%=      5-min Rain = 0
KLE1 202251Z 15009KT 37/16 A2995 RMK A01 T03690156  RH  028%=      5-min Rain = 0
KLE1 202252Z 15009KT 37/16 A2995 RMK A01 T03690155  RH  028%=      5-min Rain = 0
KLE1 202253Z 15008KT 37/16 A2995 RMK A01 T03680156  RH  028%=      5-min Rain = 0
KLE1 202254Z 15008KT 37/16 A2995 RMK A01 T03680157  RH  029%=      5-min Rain = 0
KLE1 202255Z 15007KT 37/16 A2995 RMK A01 T03670158  RH  029%=      5-min Rain = 0
KLE1 202256Z 14007KT 37/16 A2995 RMK A01 T03660159  RH  029%=      5-min Rain = 0
KLE1 202257Z 13010KT 37/16 A2995 RMK A01 T03660160  RH  030%=      5-min Rain = 0
KLE1 202258Z 13011KT 37/16 A2995 RMK A01 T03650161  RH  030%=      5-min Rain = 0
KLE1 202259Z 14012KT 36/16 A2995 RMK A01 T03640159  RH  030%=      5-min Rain = 0
KLE1 202300Z 15011KT 36/16 A2995 RMK A01 T03640159  RH  030%=      5-min Rain = 0
KLE1 202301Z 16011KT 36/16 A2995 RMK A01 T03640159  RH  030%=      5-min Rain = 0
KLE1 202302Z 16013KT 36/16 A2995 RMK A01 T03640158  RH  030%=      5-min Rain = 0
KLE1 202303Z 16012KT 36/16 A2995 RMK A01 T03640157  RH  029%=      5-min Rain = 0
KLE1 202304Z 16010KT 36/16 A2995 RMK A01 T03640158  RH  030%=      5-min Rain = 0
KLE1 202305Z 16009KT 36/16 A2995 RMK A01 T03640160  RH  030%=      5-min Rain = 0
KLE1 202306Z 16010KT 36/16 A2995 RMK A01 T03630160  RH  030%=      5-min Rain = 0
KLE1 202307Z 16009KT 36/16 A2995 RMK A01 T03630159  RH  030%=      5-min Rain = 0
KLE1 202308Z 17010KT 36/16 A2995 RMK A01 T03630159  RH  030%=      5-min Rain = 0
KLE1 202309Z 16012KT 36/16 A2996 RMK A01 T03640157  RH  029%=      5-min Rain = 0
KLE1 202310Z 16012KT 36/16 A2996 RMK A01 T03640158  RH  029%=      5-min Rain = 0
KLE1 202311Z 17009KT 36/16 A2996 RMK A01 T03640159  RH  030%=      5-min Rain = 0
KLE1 202312Z 18011KT 36/16 A2996 RMK A01 T03640160  RH  030%=      5-min Rain = 0
KLE1 202313Z 18011KT 36/16 A2996 RMK A01 T03640160  RH  030%=      5-min Rain = 0
KLE1 202314Z 17010KT 36/16 A2996 RMK A01 T03640162  RH  030%=      5-min Rain = 0
KLE1 202315Z 18011KT 36/16 A2996 RMK A01 T03640162  RH  030%=      5-min Rain = 0
KLE1 202316Z 18014KT 36/16 A2996 RMK A01 T03640160  RH  030%=      5-min Rain = 0
KLE1 202317Z 18012KT 36/16 A2996 RMK A01 T03640158  RH  030%=      5-min Rain = 0
KLE1 202318Z 18011KT 36/16 A2996 RMK A01 T03640158  RH  029%=      5-min Rain = 0
KLE1 202319Z 17013KT 36/16 A2996 RMK A01 T03640158  RH  029%=      5-min Rain = 0
KLE1 202320Z 17012KT 36/16 A2996 RMK A01 T03640156  RH  029%=      5-min Rain = 0
KLE1 202321Z 17014KT 37/16 A2996 RMK A01 T03650156  RH  029%=      5-min Rain = 0
KLE1 202322Z 17012KT 37/16 A2996 RMK A01 T03650157  RH  029%=      5-min Rain = 0
KLE1 202323Z 17012KT 37/16 A2996 RMK A01 T03650158  RH  029%=      5-min Rain = 0
KLE1 202324Z 17011KT 37/16 A2996 RMK A01 T03650158  RH  029%=      5-min Rain = 0
KLE1 202325Z 18011KT 36/16 A2996 RMK A01 T03630159  RH  030%=      5-min Rain = 0
KLE1 202326Z 17014KT 36/16 A2996 RMK A01 T03630158  RH  030%=      5-min Rain = 0
KLE1 202327Z 17010KT 36/16 A2996 RMK A01 T03630158  RH  030%=      5-min Rain = 0
KLE1 202328Z 17011KT 36/16 A2996 RMK A01 T03620160  RH  030%=      5-min Rain = 0
KLE1 202329Z 17012KT 36/16 A2996 RMK A01 T03620157  RH  030%=      5-min Rain = 0
KLE1 202330Z 17012KT 36/16 A2996 RMK A01 T03610157  RH  030%=      5-min Rain = 0
KLE1 202331Z 16010KT 36/16 A2996 RMK A01 T03610156  RH  029%=      5-min Rain = 0
KLE1 202332Z 17011KT 36/16 A2996 RMK A01 T03610156  RH  030%=      5-min Rain = 0
KLE1 202333Z 17011KT 36/16 A2996 RMK A01 T03610156  RH  030%=      5-min Rain = 0
KLE1 202334Z 17011KT 36/16 A2996 RMK A01 T03620157  RH  030%=      5-min Rain = 0
KLE1 202335Z 17009KT 36/16 A2996 RMK A01 T03610157  RH  030%=      5-min Rain = 0
KLE1 202336Z 16009KT 36/16 A2996 RMK A01 T03610158  RH  030%=      5-min Rain = 0
KLE1 202337Z 16010KT 36/16 A2996 RMK A01 T03600157  RH  030%=      5-min Rain = 0
KLE1 202338Z 17012KT 36/15 A2996 RMK A01 T03600154  RH  030%=      5-min Rain = 0
KLE1 202339Z 16011KT 36/15 A2996 RMK A01 T03600154  RH  029%=      5-min Rain = 0
KLE1 202340Z 16011KT 36/16 A2996 RMK A01 T03610156  RH  030%=      5-min Rain = 0
KLE1 202341Z 16010KT 36/16 A2996 RMK A01 T03600156  RH  030%=      5-min Rain = 0
KLE1 202342Z 16009KT 36/16 A2996 RMK A01 T03590158  RH  030%=      5-min Rain = 0
KLE1 202343Z 16010KT 36/16 A2996 RMK A01 T03590158  RH  030%=      5-min Rain = 0
KLE1 202344Z 15009KT 36/16 A2996 RMK A01 T03580159  RH  031%=      5-min Rain = 0
KLE1 202345Z 15009KT 36/16 A2996 RMK A01 T03570160  RH  031%=      5-min Rain = 0
KLE1 202346Z 15009KT 36/16 A2996 RMK A01 T03560160  RH  031%=      5-min Rain = 0
KLE1 202347Z 16009KT 36/16 A2996 RMK A01 T03550161  RH  032%=      5-min Rain = 0
KLE1 202348Z 15009KT 35/16 A2996 RMK A01 T03540162  RH  032%=      5-min Rain = 0
KLE1 202349Z 15009KT 35/16 A2996 RMK A01 T03540162  RH  032%=      5-min Rain = 0
KLE1 202350Z 16009KT 35/16 A2996 RMK A01 T03530162  RH  032%=      5-min Rain = 0
KLE1 202351Z 15009KT 35/16 A2996 RMK A01 T03530162  RH  032%=      5-min Rain = 0
KLE1 202352Z 16008KT 35/16 A2996 RMK A01 T03530162  RH  032%=      5-min Rain = 0
KLE1 202353Z 16008KT 35/16 A2996 RMK A01 T03520163  RH  033%=      5-min Rain = 0
KLE1 202354Z 16008KT 35/16 A2996 RMK A01 T03520164  RH  033%=      5-min Rain = 0
KLE1 202355Z 17008KT 35/17 A2996 RMK A01 T03510165  RH  033%=      5-min Rain = 0
KLE1 202356Z 18007KT 35/17 A2996 RMK A01 T03510165  RH  033%=      5-min Rain = 0
KLE1 202357Z 18007KT 35/17 A2996 RMK A01 T03500165  RH  033%=      5-min Rain = 0
KLE1 202358Z 22005KT 35/17 A2996 RMK A01 T03500167  RH  034%=      5-min Rain = 0
KLE1 202359Z 26005KT 35/17 A2996 RMK A01 T03490168  RH  034%=      5-min Rain = 0
KLE1 210000Z 27005KT 35/17 A2996 RMK A01 T03460170  RH  035%=      5-min Rain = 0
KLE1 210001Z 27004KT 34/17 A2996 RMK A01 T03410169  RH  036%=      5-min Rain = 0
KLE1 210002Z 30004KT 34/17 A2996 RMK A01 T03390170  RH  037%=      5-min Rain = 0
KLE1 210003Z 32005KT 34/17 A2996 RMK A01 T03370170  RH  037%=      5-min Rain = 0
KLE1 210004Z 32005KT 33/17 A2996 RMK A01 T03340168  RH  037%=      5-min Rain = 0
KLE1 210005Z 32007KT 33/17 A2996 RMK A01 T03320168  RH  038%=      5-min Rain = 0
KLE1 210006Z 33007KT 33/17 A2996 RMK A01 T03300168  RH  038%=      5-min Rain = 0
KLE1 210007Z 34006KT 33/17 A2996 RMK A01 T03290169  RH  038%=      5-min Rain = 0
KLE1 210008Z 36005KT 33/17 A2996 RMK A01 T03280170  RH  039%=      5-min Rain = 0
KLE1 210009Z 35003KT 33/17 A2996 RMK A01 T03280171  RH  039%=      5-min Rain = 0
KLE1 210010Z 36002KT 33/17 A2996 RMK A01 T03280170  RH  039%=      5-min Rain = 0
KLE1 210011Z 35003KT 33/17 A2996 RMK A01 T03280169  RH  039%=      5-min Rain = 0
KLE1 210012Z 00003KT 33/17 A2996 RMK A01 T03280168  RH  038%=      5-min Rain = 0
KLE1 210013Z 35003KT 33/17 A2996 RMK A01 T03290169  RH  038%=      5-min Rain = 0
KLE1 210014Z 01002KT 33/17 A2996 RMK A01 T03290168  RH  038%=      5-min Rain = 0
KLE1 210015Z 02002KT 33/17 A2996 RMK A01 T03290168  RH  038%=      5-min Rain = 0
KLE1 210016Z 36001KT 33/17 A2996 RMK A01 T03290168  RH  038%=      5-min Rain = 0
KLE1 210017Z 31002KT 33/17 A2996 RMK A01 T03300167  RH  038%=      5-min Rain = 0
KLE1 210018Z 33002KT 33/17 A2996 RMK A01 T03310166  RH  037%=      5-min Rain = 0
KLE1 210019Z 33002KT 33/17 A2996 RMK A01 T03330170  RH  038%=      5-min Rain = 0
KLE1 210020Z 33003KT 33/17 A2996 RMK A01 T03330170  RH  038%=      5-min Rain = 0
KLE1 210021Z 34003KT 33/17 A2996 RMK A01 T03340168  RH  037%=      5-min Rain = 0
KLE1 210022Z 34002KT 34/17 A2996 RMK A01 T03350169  RH  037%=      5-min Rain = 0
KLE1 210023Z 34003KT 34/17 A2996 RMK A01 T03350168  RH  037%=      5-min Rain = 0
KLE1 210024Z 34004KT 34/17 A2996 RMK A01 T03360174  RH  038%=      5-min Rain = 0
KLE1 210025Z 34004KT 33/18 A2996 RMK A01 T03340177  RH  039%=      5-min Rain = 0
KLE1 210026Z 35003KT 33/18 A2996 RMK A01 T03320177  RH  040%=      5-min Rain = 0
KLE1 210027Z 35002KT 33/18 A2996 RMK A01 T03310176  RH  040%=      5-min Rain = 0
KLE1 210028Z 34001KT 33/17 A2996 RMK A01 T03300172  RH  039%=      5-min Rain = 0
KLE1 210029Z 32002KT 33/17 A2996 RMK A01 T03310168  RH  038%=      5-min Rain = 0
KLE1 210030Z 33002KT 33/17 A2996 RMK A01 T03330172  RH  038%=      5-min Rain = 0
KLE1 210031Z 02003KT 33/17 A2996 RMK A01 T03340173  RH  038%=      5-min Rain = 0
KLE1 210032Z 04002KT 33/17 A2996 RMK A01 T03340172  RH  038%=      5-min Rain = 0
KLE1 210033Z 07002KT 34/17 A2996 RMK A01 T03350171  RH  038%=      5-min Rain = 0
KLE1 210034Z 12003KT 34/17 A2996 RMK A01 T03370166  RH  036%=      5-min Rain = 0
KLE1 210035Z 13004KT 34/16 A2996 RMK A01 T03400164  RH  035%=      5-min Rain = 0
KLE1 210036Z 11002KT 34/17 A2996 RMK A01 T03430167  RH  035%=      5-min Rain = 0
KLE1 210037Z 07002KT 35/17 A2996 RMK A01 T03450167  RH  035%=      5-min Rain = 0
KLE1 210038Z 08002KT 35/17 A2996 RMK A01 T03450167  RH  035%=      5-min Rain = 0
KLE1 210039Z 04002KT 35/17 A2996 RMK A01 T03450167  RH  035%=      5-min Rain = 0
KLE1 210040Z 03003KT 35/17 A2996 RMK A01 T03460169  RH  035%=      5-min Rain = 0
KLE1 210041Z 02002KT 35/17 A2996 RMK A01 T03460171  RH  036%=      5-min Rain = 0
KLE1 210042Z 10001KT 35/17 A2996 RMK A01 T03450169  RH  035%=      5-min Rain = 0
KLE1 210043Z 12003KT 35/17 A2996 RMK A01 T03450170  RH  035%=      5-min Rain = 0
KLE1 210044Z 12002KT 35/17 A2996 RMK A01 T03450170  RH  035%=      5-min Rain = 0
KLE1 210045Z 08003KT 35/17 A2996 RMK A01 T03450173  RH  036%=      5-min Rain = 0
KLE1 210046Z 11002KT 35/17 A2996 RMK A01 T03450167  RH  035%=      5-min Rain = 0
KLE1 210047Z 09003KT 35/17 A2996 RMK A01 T03450171  RH  036%=      5-min Rain = 0
KLE1 210048Z 09003KT 35/17 A2996 RMK A01 T03460165  RH  034%=      5-min Rain = 0
KLE1 210049Z 10003KT 35/17 A2996 RMK A01 T03480168  RH  035%=      5-min Rain = 0
KLE1 210050Z 06003KT 35/17 A2996 RMK A01 T03480172  RH  035%=      5-min Rain = 0
KLE1 210051Z 08003KT 35/18 A2996 RMK A01 T03470176  RH  036%=      5-min Rain = 0
KLE1 210052Z 07003KT 35/18 A2996 RMK A01 T03450176  RH  037%=      5-min Rain = 0
KLE1 210053Z 08004KT 34/18 A2996 RMK A01 T03440176  RH  037%=      5-min Rain = 0
KLE1 210054Z 09004KT 34/18 A2996 RMK A01 T03430175  RH  037%=      5-min Rain = 0
KLE1 210055Z 08003KT 34/18 A2996 RMK A01 T03430176  RH  037%=      5-min Rain = 0
KLE1 210056Z 08004KT 34/18 A2996 RMK A01 T03410176  RH  037%=      5-min Rain = 0
KLE1 210057Z 08003KT 34/18 A2996 RMK A01 T03410176  RH  038%=      5-min Rain = 0
KLE1 210058Z 09004KT 34/18 A2996 RMK A01 T03400178  RH  038%=      5-min Rain = 0
KLE1 210059Z 09003KT 34/18 A2996 RMK A01 T03390178  RH  038%=      5-min Rain = 0
KLE1 210100Z 08003KT 34/18 A2996 RMK A01 T03380176  RH  038%=      5-min Rain = 0
KLE1 210101Z 07003KT 34/18 A2996 RMK A01 T03380177  RH  038%=      5-min Rain = 0
KLE1 210102Z 08003KT 34/18 A2996 RMK A01 T03380177  RH  039%=      5-min Rain = 0
KLE1 210103Z 11003KT 34/18 A2996 RMK A01 T03370177  RH  039%=      5-min Rain = 0
KLE1 210104Z 10003KT 34/18 A2996 RMK A01 T03360176  RH  038%=      5-min Rain = 0
KLE1 210105Z 09003KT 34/18 A2996 RMK A01 T03360176  RH  039%=      5-min Rain = 0
KLE1 210106Z 10002KT 34/17 A2996 RMK A01 T03370174  RH  038%=      5-min Rain = 0
KLE1 210107Z 10002KT 34/17 A2996 RMK A01 T03370174  RH  038%=      5-min Rain = 0
KLE1 210108Z 10003KT 34/17 A2996 RMK A01 T03370174  RH  038%=      5-min Rain = 0
KLE1 210109Z 12003KT 34/18 A2997 RMK A01 T03370175  RH  038%=      5-min Rain = 0
KLE1 210110Z 10002KT 34/17 A2997 RMK A01 T03370173  RH  038%=      5-min Rain = 0
KLE1 210111Z 11002KT 34/18 A2997 RMK A01 T03370175  RH  038%=      5-min Rain = 0
KLE1 210112Z 12002KT 34/17 A2997 RMK A01 T03360174  RH  038%=      5-min Rain = 0
KLE1 210113Z 12003KT 34/17 A2997 RMK A01 T03360174  RH  038%=      5-min Rain = 0
KLE1 210114Z 12002KT 34/17 A2997 RMK A01 T03360173  RH  038%=      5-min Rain = 0
KLE1 210115Z 13003KT 34/17 A2997 RMK A01 T03360174  RH  038%=      5-min Rain = 0
KLE1 210116Z 14003KT 34/17 A2997 RMK A01 T03360174  RH  038%=      5-min Rain = 0
KLE1 210117Z 13003KT 34/18 A2997 RMK A01 T03360175  RH  038%=      5-min Rain = 0
KLE1 210118Z 14004KT 34/18 A2997 RMK A01 T03350175  RH  038%=      5-min Rain = 0
KLE1 210119Z 15004KT 33/17 A2997 RMK A01 T03340173  RH  038%=      5-min Rain = 0
KLE1 210120Z 15005KT 33/17 A2997 RMK A01 T03330171  RH  038%=      5-min Rain = 0
KLE1 210121Z 15005KT 33/17 A2997 RMK A01 T03330171  RH  038%=      5-min Rain = 0
KLE1 210122Z 16004KT 33/17 A2997 RMK A01 T03340173  RH  038%=      5-min Rain = 0
KLE1 210123Z 16004KT 33/17 A2997 RMK A01 T03330173  RH  039%=      5-min Rain = 0
KLE1 210124Z 16004KT 33/17 A2997 RMK A01 T03320173  RH  039%=      5-min Rain = 0
KLE1 210125Z 15004KT 33/17 A2997 RMK A01 T03310173  RH  039%=      5-min Rain = 0
KLE1 210126Z 16004KT 33/17 A2997 RMK A01 T03300174  RH  039%=      5-min Rain = 0
KLE1 210127Z 16005KT 33/18 A2997 RMK A01 T03290175  RH  040%=      5-min Rain = 0
KLE1 210128Z 16005KT 33/18 A2997 RMK A01 T03280175  RH  040%=      5-min Rain = 0
KLE1 210129Z 16005KT 33/18 A2997 RMK A01 T03270175  RH  040%=      5-min Rain = 0
KLE1 210130Z 16005KT 33/18 A2997 RMK A01 T03260176  RH  041%=      5-min Rain = 0
KLE1 210131Z 16005KT 33/18 A2997 RMK A01 T03250176  RH  041%=      5-min Rain = 0
KLE1 210132Z 16005KT 33/18 A2997 RMK A01 T03250177  RH  041%=      5-min Rain = 0
KLE1 210133Z 15005KT 32/18 A2997 RMK A01 T03240177  RH  042%=      5-min Rain = 0
KLE1 210134Z 15005KT 32/18 A2997 RMK A01 T03230177  RH  042%=      5-min Rain = 0
KLE1 210135Z 15005KT 32/18 A2997 RMK A01 T03220176  RH  042%=      5-min Rain = 0
KLE1 210136Z 15006KT 32/18 A2997 RMK A01 T03220176  RH  042%=      5-min Rain = 0
KLE1 210137Z 15006KT 32/18 A2997 RMK A01 T03210175  RH  042%=      5-min Rain = 0
KLE1 210138Z 15006KT 32/18 A2997 RMK A01 T03210175  RH  042%=      5-min Rain = 0
KLE1 210139Z 15006KT 32/18 A2997 RMK A01 T03200175  RH  042%=      5-min Rain = 0
KLE1 210140Z 15006KT 32/18 A2997 RMK A01 T03190175  RH  042%=      5-min Rain = 0
KLE1 210141Z 15006KT 32/18 A2997 RMK A01 T03190175  RH  042%=      5-min Rain = 0
KLE1 210142Z 14006KT 32/18 A2997 RMK A01 T03180175  RH  042%=      5-min Rain = 0
KLE1 210143Z 14006KT 32/18 A2997 RMK A01 T03180175  RH  042%=      5-min Rain = 0
KLE1 210144Z 15007KT 32/18 A2997 RMK A01 T03180175  RH  042%=      5-min Rain = 0
KLE1 210145Z 15007KT 32/17 A2997 RMK A01 T03180174  RH  042%=      5-min Rain = 0
KLE1 210146Z 15007KT 32/17 A2997 RMK A01 T03170174  RH  042%=      5-min Rain = 0
KLE1 210147Z 15007KT 32/17 A2997 RMK A01 T03170173  RH  042%=      5-min Rain = 0
KLE1 210148Z 15008KT 32/17 A2997 RMK A01 T03170173  RH  042%=      5-min Rain = 0
KLE1 210149Z 15008KT 32/17 A2997 RMK A01 T03170171  RH  042%=      5-min Rain = 0
KLE1 210150Z 15008KT 32/17 A2997 RMK A01 T03170170  RH  042%=      5-min Rain = 0
KLE1 210151Z 15008KT 32/17 A2998 RMK A01 T03170169  RH  041%=      5-min Rain = 0
KLE1 210152Z 15009KT 32/17 A2998 RMK A01 T03170168  RH  041%=      5-min Rain = 0
KLE1 210153Z 16009KT 32/17 A2998 RMK A01 T03170167  RH  041%=      5-min Rain = 0
KLE1 210154Z 16009KT 32/17 A2998 RMK A01 T03170166  RH  040%=      5-min Rain = 0
KLE1 210155Z 16008KT 32/17 A2998 RMK A01 T03170166  RH  040%=      5-min Rain = 0
KLE1 210156Z 16009KT 32/17 A2998 RMK A01 T03170165  RH  040%=      5-min Rain = 0
KLE1 210157Z 15008KT 32/17 A2998 RMK A01 T03180165  RH  040%=      5-min Rain = 0
KLE1 210158Z 16009KT 32/16 A2998 RMK A01 T03170164  RH  040%=      5-min Rain = 0
KLE1 210159Z 15008KT 32/16 A2998 RMK A01 T03180164  RH  040%=      5-min Rain = 0
KLE1 210200Z 15008KT 32/16 A2998 RMK A01 T03180164  RH  040%=      5-min Rain = 0
KLE1 210201Z 15009KT 32/16 A2998 RMK A01 T03180163  RH  039%=      5-min Rain = 0
KLE1 210202Z 15009KT 32/16 A2998 RMK A01 T03180162  RH  039%=      5-min Rain = 0
KLE1 210203Z 15008KT 32/16 A2998 RMK A01 T03190162  RH  039%=      5-min Rain = 0
KLE1 210204Z 15008KT 32/16 A2998 RMK A01 T03200161  RH  039%=      5-min Rain = 0
KLE1 210205Z 15009KT 32/16 A2998 RMK A01 T03200161  RH  038%=      5-min Rain = 0
KLE1 210206Z 15008KT 32/16 A2998 RMK A01 T03210161  RH  038%=      5-min Rain = 0
KLE1 210207Z 15008KT 32/16 A2998 RMK A01 T03210162  RH  038%=      5-min Rain = 0
KLE1 210208Z 15008KT 32/16 A2998 RMK A01 T03210162  RH  038%=      5-min Rain = 0
KLE1 210209Z 15008KT 32/16 A2999 RMK A01 T03200162  RH  039%=      5-min Rain = 0
KLE1 210210Z 15008KT 32/16 A2999 RMK A01 T03180161  RH  039%=      5-min Rain = 0
KLE1 210211Z 15008KT 32/16 A2999 RMK A01 T03180161  RH  039%=      5-min Rain = 0
KLE1 210212Z 16007KT 32/16 A2999 RMK A01 T03170161  RH  039%=      5-min Rain = 0
KLE1 210213Z 16007KT 32/16 A2999 RMK A01 T03170161  RH  039%=      5-min Rain = 0
KLE1 210214Z 16007KT 32/16 A2999 RMK A01 T03160160  RH  039%=      5-min Rain = 0
KLE1 210215Z 16007KT 32/16 A2999 RMK A01 T03150160  RH  039%=      5-min Rain = 0
KLE1 210216Z 17007KT 32/16 A2999 RMK A01 T03150160  RH  039%=      5-min Rain = 0
KLE1 210217Z 17006KT 32/16 A2999 RMK A01 T03150161  RH  039%=      5-min Rain = 0
KLE1 210218Z 17006KT 32/16 A2999 RMK A01 T03150161  RH  040%=      5-min Rain = 0
KLE1 210219Z 19005KT 31/16 A2999 RMK A01 T03140162  RH  040%=      5-min Rain = 0
KLE1 210220Z 23003KT 31/16 A2999 RMK A01 T03130163  RH  041%=      5-min Rain = 0
KLE1 210221Z 23003KT 31/17 A30 RMK A01 T03110165  RH  041%=      5-min Rain = 0
KLE1 210222Z 22002KT 31/17 A30 RMK A01 T03100167  RH  042%=      5-min Rain = 0
KLE1 210223Z 19002KT 31/17 A30 RMK A01 T03090167  RH  043%=      5-min Rain = 0
KLE1 210224Z 16002KT 31/17 A30 RMK A01 T03080167  RH  043%=      5-min Rain = 0
KLE1 210225Z 15003KT 31/17 A30 RMK A01 T03070166  RH  043%=      5-min Rain = 0
KLE1 210226Z 14004KT 31/16 A30 RMK A01 T03070163  RH  042%=      5-min Rain = 0
KLE1 210227Z 14004KT 31/16 A30 RMK A01 T03070163  RH  042%=      5-min Rain = 0
KLE1 210228Z 14004KT 31/16 A30 RMK A01 T03090162  RH  041%=      5-min Rain = 0
KLE1 210229Z 15005KT 31/16 A30 RMK A01 T03090162  RH  041%=      5-min Rain = 0
KLE1 210230Z 15006KT 31/16 A30 RMK A01 T03100160  RH  041%=      5-min Rain = 0
KLE1 210231Z 14006KT 31/16 A30 RMK A01 T03110162  RH  041%=      5-min Rain = 0
KLE1 210232Z 15007KT 31/16 A30 RMK A01 T03120163  RH  041%=      5-min Rain = 0
KLE1 210233Z 16007KT 31/16 A30 RMK A01 T03120162  RH  040%=      5-min Rain = 0
KLE1 210234Z 15007KT 31/16 A2999 RMK A01 T03120161  RH  040%=      5-min Rain = 0
KLE1 210235Z 15007KT 31/16 A2999 RMK A01 T03120161  RH  040%=      5-min Rain = 0
KLE1 210236Z 15007KT 31/16 A2999 RMK A01 T03120160  RH  040%=      5-min Rain = 0
KLE1 210237Z 15008KT 31/16 A30 RMK A01 T03120160  RH  040%=      5-min Rain = 0
KLE1 210238Z 15007KT 31/16 A30 RMK A01 T03130159  RH  040%=      5-min Rain = 0
KLE1 210239Z 15007KT 31/16 A30 RMK A01 T03140157  RH  039%=      5-min Rain = 0
KLE1 210240Z 15007KT 32/16 A30 RMK A01 T03150157  RH  039%=      5-min Rain = 0
KLE1 210241Z 15008KT 32/16 A30 RMK A01 T03160158  RH  039%=      5-min Rain = 0
KLE1 210242Z 15008KT 32/16 A30 RMK A01 T03160157  RH  038%=      5-min Rain = 0
KLE1 210243Z 15009KT 32/16 A30 RMK A01 T03160156  RH  038%=      5-min Rain = 0
KLE1 210244Z 15009KT 32/16 A30 RMK A01 T03170157  RH  038%=      5-min Rain = 0
KLE1 210245Z 15008KT 32/16 A30 RMK A01 T03180156  RH  038%=      5-min Rain = 0
KLE1 210246Z 15008KT 32/16 A30 RMK A01 T03180156  RH  038%=      5-min Rain = 0
KLE1 210247Z 15009KT 32/16 A30 RMK A01 T03180157  RH  038%=      5-min Rain = 0
KLE1 210248Z 15009KT 32/16 A30 RMK A01 T03170157  RH  038%=      5-min Rain = 0
KLE1 210249Z 15008KT 32/16 A30 RMK A01 T03170156  RH  038%=      5-min Rain = 0
KLE1 210250Z 15008KT 32/16 A30 RMK A01 T03170157  RH  038%=      5-min Rain = 0
KLE1 210251Z 15008KT 32/16 A30 RMK A01 T03160157  RH  038%=      5-min Rain = 0
KLE1 210252Z 15008KT 32/16 A30 RMK A01 T03160157  RH  038%=      5-min Rain = 0
KLE1 210253Z 14008KT 32/16 A30 RMK A01 T03150158  RH  039%=      5-min Rain = 0
KLE1 210254Z 14007KT 31/16 A30 RMK A01 T03140159  RH  039%=      5-min Rain = 0
KLE1 210255Z 15008KT 31/16 A30 RMK A01 T03120160  RH  040%=      5-min Rain = 0
KLE1 210256Z 14008KT 31/16 A30 RMK A01 T03110159  RH  040%=      5-min Rain = 0
KLE1 210257Z 14008KT 31/16 A30 RMK A01 T03110159  RH  040%=      5-min Rain = 0
KLE1 210258Z 14007KT 31/16 A30 RMK A01 T03100160  RH  040%=      5-min Rain = 0
KLE1 210259Z 14007KT 31/16 A30 RMK A01 T03080164  RH  042%=      5-min Rain = 0
KLE1 210300Z 13008KT 31/16 A30 RMK A01 T03060164  RH  042%=      5-min Rain = 0
KLE1 210301Z 14008KT 30/16 A30 RMK A01 T03040164  RH  043%=      5-min Rain = 0
KLE1 210302Z 13007KT 30/16 A30 RMK A01 T03020164  RH  043%=      5-min Rain = 0
KLE1 210303Z 13008KT 30/17 A30 RMK A01 T03010166  RH  044%=      5-min Rain = 0
KLE1 210304Z 13007KT 30/17 A30 RMK A01 T03000165  RH  044%=      5-min Rain = 0
KLE1 210305Z 13007KT 30/17 A30 RMK A01 T03000165  RH  044%=      5-min Rain = 0
KLE1 210306Z 13007KT 30/17 A30 RMK A01 T03000166  RH  044%=      5-min Rain = 0
KLE1 210307Z 13007KT 30/16 A30 RMK A01 T03000163  RH  044%=      5-min Rain = 0
KLE1 210308Z 13007KT 30/16 A30 RMK A01 T03010164  RH  044%=      5-min Rain = 0
KLE1 210309Z 13007KT 30/17 A30 RMK A01 T03010166  RH  044%=      5-min Rain = 0
KLE1 210310Z 13007KT 30/17 A3001 RMK A01 T03010167  RH  045%=      5-min Rain = 0
KLE1 210311Z 13007KT 30/17 A3001 RMK A01 T03000169  RH  045%=      5-min Rain = 0
KLE1 210312Z 13007KT 30/17 A3001 RMK A01 T02990166  RH  045%=      5-min Rain = 0
KLE1 210313Z 13007KT 30/17 A3001 RMK A01 T02990165  RH  045%=      5-min Rain = 0
KLE1 210314Z 13007KT 30/16 A3001 RMK A01 T02990164  RH  044%=      5-min Rain = 0
KLE1 210315Z 13007KT 30/16 A3001 RMK A01 T03000162  RH  043%=      5-min Rain = 0
KLE1 210316Z 13007KT 30/16 A3001 RMK A01 T03020162  RH  043%=      5-min Rain = 0
KLE1 210317Z 13007KT 30/16 A3001 RMK A01 T03030161  RH  042%=      5-min Rain = 0
KLE1 210318Z 13007KT 30/16 A3001 RMK A01 T03040162  RH  042%=      5-min Rain = 0
KLE1 210319Z 13007KT 30/16 A3001 RMK A01 T03040164  RH  043%=      5-min Rain = 0
KLE1 210320Z 13008KT 30/16 A3001 RMK A01 T03030163  RH  043%=      5-min Rain = 0
KLE1 210321Z 13007KT 30/16 A3001 RMK A01 T03030163  RH  043%=      5-min Rain = 0
KLE1 210322Z 13007KT 30/16 A3001 RMK A01 T03020164  RH  044%=      5-min Rain = 0
KLE1 210323Z 13007KT 30/16 A3001 RMK A01 T03010164  RH  044%=      5-min Rain = 0
KLE1 210324Z 13007KT 30/16 A3001 RMK A01 T03000164  RH  044%=      5-min Rain = 0
KLE1 210325Z 13007KT 30/17 A3001 RMK A01 T03000165  RH  044%=      5-min Rain = 0
KLE1 210326Z 13007KT 30/16 A3001 RMK A01 T02990164  RH  044%=      5-min Rain = 0
KLE1 210327Z 13007KT 30/16 A3001 RMK A01 T02990164  RH  044%=      5-min Rain = 0
KLE1 210328Z 13007KT 30/17 A3001 RMK A01 T02980165  RH  045%=      5-min Rain = 0
KLE1 210329Z 13007KT 30/16 A3001 RMK A01 T02970164  RH  045%=      5-min Rain = 0
KLE1 210330Z 13007KT 30/16 A3001 RMK A01 T02970164  RH  045%=      5-min Rain = 0
KLE1 210331Z 13007KT 30/17 A3001 RMK A01 T02970165  RH  045%=      5-min Rain = 0
KLE1 210332Z 13007KT 30/16 A3001 RMK A01 T02960164  RH  045%=      5-min Rain = 0
KLE1 210333Z 12006KT 30/16 A3001 RMK A01 T02960164  RH  045%=      5-min Rain = 0
KLE1 210334Z 13007KT 30/16 A3001 RMK A01 T02950164  RH  045%=      5-min Rain = 0
KLE1 210335Z 13007KT 29/16 A3001 RMK A01 T02940164  RH  045%=      5-min Rain = 0
KLE1 210336Z 12006KT 29/16 A3001 RMK A01 T02940164  RH  045%=      5-min Rain = 0
KLE1 210337Z 12006KT 29/16 A3001 RMK A01 T02940163  RH  045%=      5-min Rain = 0
KLE1 210338Z 12006KT 29/16 A3001 RMK A01 T02940164  RH  045%=      5-min Rain = 0
KLE1 210339Z 12007KT 29/16 A3001 RMK A01 T02930164  RH  046%=      5-min Rain = 0
KLE1 210340Z 12006KT 29/16 A3001 RMK A01 T02930164  RH  046%=      5-min Rain = 0
KLE1 210341Z 12007KT 29/17 A3001 RMK A01 T02920165  RH  046%=      5-min Rain = 0
KLE1 210342Z 12006KT 29/17 A3001 RMK A01 T02920165  RH  046%=      5-min Rain = 0
KLE1 210343Z 12006KT 29/17 A3001 RMK A01 T02910165  RH  046%=      5-min Rain = 0
KLE1 210344Z 12006KT 29/17 A3001 RMK A01 T02910165  RH  047%=      5-min Rain = 0
KLE1 210345Z 12006KT 29/17 A3001 RMK A01 T02900165  RH  047%=      5-min Rain = 0
KLE1 210346Z 12006KT 29/17 A3001 RMK A01 T02900165  RH  047%=      5-min Rain = 0
KLE1 210347Z 12006KT 29/16 A3001 RMK A01 T02890164  RH  047%=      5-min Rain = 0
KLE1 210348Z 12006KT 29/16 A3001 RMK A01 T02900164  RH  047%=      5-min Rain = 0
KLE1 210349Z 12006KT 29/16 A3001 RMK A01 T02890164  RH  047%=      5-min Rain = 0
KLE1 210350Z 12006KT 29/16 A3002 RMK A01 T02890164  RH  047%=      5-min Rain = 0
KLE1 210351Z 12006KT 29/16 A3002 RMK A01 T02890163  RH  046%=      5-min Rain = 0
KLE1 210352Z 12006KT 29/16 A3002 RMK A01 T02890163  RH  046%=      5-min Rain = 0
KLE1 210353Z 12006KT 29/16 A3002 RMK A01 T02900163  RH  046%=      5-min Rain = 0
KLE1 210354Z 13006KT 29/16 A3002 RMK A01 T02890163  RH  046%=      5-min Rain = 0
KLE1 210355Z 13006KT 29/16 A3002 RMK A01 T02890162  RH  046%=      5-min Rain = 0
KLE1 210356Z 13006KT 29/16 A3002 RMK A01 T02900162  RH  046%=      5-min Rain = 0
KLE1 210357Z 13006KT 29/16 A3002 RMK A01 T02890161  RH  046%=      5-min Rain = 0
KLE1 210358Z 14007KT 29/16 A3002 RMK A01 T02900159  RH  045%=      5-min Rain = 0
KLE1 210359Z 14006KT 29/16 A3002 RMK A01 T02910159  RH  045%=      5-min Rain = 0
KLE1 210400Z 14006KT 29/16 A3002 RMK A01 T02910159  RH  045%=      5-min Rain = 0
KLE1 210401Z 14006KT 29/16 A3002 RMK A01 T02910159  RH  045%=      5-min Rain = 0
KLE1 210402Z 14006KT 29/16 A3002 RMK A01 T02910160  RH  045%=      5-min Rain = 0
KLE1 210403Z 15006KT 29/16 A3002 RMK A01 T02910160  RH  045%=      5-min Rain = 0
KLE1 210404Z 14006KT 29/16 A3002 RMK A01 T02910159  RH  045%=      5-min Rain = 0
KLE1 210405Z 15005KT 29/16 A3002 RMK A01 T02920160  RH  045%=      5-min Rain = 0
KLE1 210406Z 15005KT 29/16 A3002 RMK A01 T02920161  RH  045%=      5-min Rain = 0
KLE1 210407Z 15005KT 29/16 A3002 RMK A01 T02920160  RH  045%=      5-min Rain = 0
KLE1 210408Z 16005KT 29/16 A3002 RMK A01 T02920161  RH  045%=      5-min Rain = 0
KLE1 210409Z 16006KT 29/16 A3002 RMK A01 T02920161  RH  045%=      5-min Rain = 0
KLE1 210410Z 16006KT 29/16 A3002 RMK A01 T02910161  RH  045%=      5-min Rain = 0
KLE1 210411Z 15007KT 29/16 A3002 RMK A01 T02910161  RH  045%=      5-min Rain = 0
KLE1 210412Z 15007KT 29/16 A3002 RMK A01 T02900161  RH  045%=      5-min Rain = 0
KLE1 210413Z 15007KT 29/16 A3002 RMK A01 T02910161  RH  046%=      5-min Rain = 0
KLE1 210414Z 15007KT 29/16 A3002 RMK A01 T02900161  RH  045%=      5-min Rain = 0
KLE1 210415Z 15007KT 29/16 A3002 RMK A01 T02900161  RH  046%=      5-min Rain = 0
KLE1 210416Z 15007KT 29/16 A3002 RMK A01 T02900161  RH  046%=      5-min Rain = 0
KLE1 210417Z 15007KT 29/16 A3002 RMK A01 T02900161  RH  046%=      5-min Rain = 0
KLE1 210418Z 15007KT 29/16 A3002 RMK A01 T02900161  RH  046%=      5-min Rain = 0
KLE1 210419Z 15007KT 29/16 A3002 RMK A01 T02900161  RH  046%=      5-min Rain = 0
KLE1 210420Z 15007KT 29/16 A3002 RMK A01 T02900160  RH  045%=      5-min Rain = 0
KLE1 210421Z 15008KT 29/16 A3002 RMK A01 T02900160  RH  045%=      5-min Rain = 0
KLE1 210422Z 15007KT 29/16 A3002 RMK A01 T02900160  RH  045%=      5-min Rain = 0
KLE1 210423Z 15007KT 29/16 A3002 RMK A01 T02900160  RH  045%=      5-min Rain = 0
KLE1 210424Z 15007KT 29/16 A3002 RMK A01 T02900160  RH  045%=      5-min Rain = 0
KLE1 210425Z 15007KT 29/16 A3002 RMK A01 T02900160  RH  045%=      5-min Rain = 0
KLE1 210426Z 15007KT 29/16 A3002 RMK A01 T02900160  RH  045%=      5-min Rain = 0
KLE1 210427Z 15007KT 29/16 A3002 RMK A01 T02900160  RH  045%=      5-min Rain = 0
KLE1 210428Z 15007KT 29/16 A3002 RMK A01 T02900160  RH  045%=      5-min Rain = 0
KLE1 210429Z 15007KT 29/16 A3002 RMK A01 T02900160  RH  045%=      5-min Rain = 0
KLE1 210430Z 15007KT 29/16 A3002 RMK A01 T02900160  RH  045%=      5-min Rain = 0
KLE1 210431Z 15007KT 29/16 A3002 RMK A01 T02890160  RH  046%=      5-min Rain = 0
KLE1 210432Z 15007KT 29/16 A3002 RMK A01 T02900161  RH  046%=      5-min Rain = 0
KLE1 210433Z 15007KT 29/16 A3002 RMK A01 T02890161  RH  046%=      5-min Rain = 0
KLE1 210434Z 15006KT 29/16 A3002 RMK A01 T02890161  RH  046%=      5-min Rain = 0
KLE1 210435Z 15007KT 29/16 A3002 RMK A01 T02890161  RH  046%=      5-min Rain = 0
KLE1 210436Z 15007KT 29/16 A3002 RMK A01 T02890160  RH  046%=      5-min Rain = 0
KLE1 210437Z 15006KT 29/16 A3002 RMK A01 T02890160  RH  046%=      5-min Rain = 0
KLE1 210438Z 15007KT 29/16 A3002 RMK A01 T02890161  RH  046%=      5-min Rain = 0
KLE1 210439Z 15007KT 29/16 A3002 RMK A01 T02890161  RH  046%=      5-min Rain = 0
KLE1 210440Z 14007KT 29/16 A3002 RMK A01 T02880161  RH  046%=      5-min Rain = 0
KLE1 210441Z 14006KT 29/16 A3002 RMK A01 T02890160  RH  046%=      5-min Rain = 0
KLE1 210442Z 14006KT 29/16 A3002 RMK A01 T02880161  RH  046%=      5-min Rain = 0
KLE1 210443Z 14006KT 29/16 A3002 RMK A01 T02880162  RH  046%=      5-min Rain = 0
KLE1 210444Z 13005KT 29/17 A3002 RMK A01 T02880165  RH  047%=      5-min Rain = 0
KLE1 210445Z 13005KT 29/17 A3002 RMK A01 T02860166  RH  048%=      5-min Rain = 0
KLE1 210446Z 13005KT 29/17 A3002 RMK A01 T02850168  RH  049%=      5-min Rain = 0
KLE1 210447Z 13005KT 28/17 A3002 RMK A01 T02840168  RH  049%=      5-min Rain = 0
KLE1 210448Z 14005KT 28/17 A3002 RMK A01 T02830167  RH  049%=      5-min Rain = 0
KLE1 210449Z 13005KT 28/17 A3001 RMK A01 T02830165  RH  049%=      5-min Rain = 0
KLE1 210450Z 14005KT 28/17 A3001 RMK A01 T02830166  RH  049%=      5-min Rain = 0
KLE1 210451Z 14006KT 28/17 A3001 RMK A01 T02830166  RH  049%=      5-min Rain = 0
KLE1 210452Z 14006KT 28/17 A3001 RMK A01 T02830166  RH  049%=      5-min Rain = 0
KLE1 210453Z 14006KT 28/17 A3001 RMK A01 T02820165  RH  049%=      5-min Rain = 0
KLE1 210454Z 14006KT 28/16 A3001 RMK A01 T02820164  RH  049%=      5-min Rain = 0
KLE1 210455Z 14006KT 28/16 A3001 RMK A01 T02830164  RH  049%=      5-min Rain = 0
KLE1 210456Z 13006KT 28/16 A3001 RMK A01 T02830163  RH  048%=      5-min Rain = 0
KLE1 210457Z 13006KT 28/16 A3001 RMK A01 T02830163  RH  048%=      5-min Rain = 0
KLE1 210458Z 13006KT 28/16 A3001 RMK A01 T02840164  RH  048%=      5-min Rain = 0
KLE1 210459Z 13006KT 28/17 A3001 RMK A01 T02840166  RH  049%=      5-min Rain = 0

Page generated in 0.1468 seconds.